Observation data for Coyanosa on 07/12/2020      Previous  Date       Current Mesonet Observations  Soil Data  Daily Summary Page  Observations in Plain Language
KCO1 120500Z 15007KT 30/11 A30 RMK A01 T03040107  RH  030%=      5-min Rain = 0
KCO1 120501Z 15007KT 30/11 A30 RMK A01 T03040107  RH  030%=      5-min Rain = 0
KCO1 120502Z 14007KT 30/11 A30 RMK A01 T03040107  RH  030%=      5-min Rain = 0
KCO1 120503Z 13005KT 30/11 A30 RMK A01 T03040108  RH  030%=      5-min Rain = 0
KCO1 120504Z 13005KT 30/11 A30 RMK A01 T03040107  RH  030%=      5-min Rain = 0
KCO1 120505Z 12005KT 30/11 A30 RMK A01 T03030107  RH  030%=      5-min Rain = 0
KCO1 120506Z 12005KT 30/11 A3001 RMK A01 T03010108  RH  030%=      5-min Rain = 0
KCO1 120507Z 11005KT 30/11 A3001 RMK A01 T03000108  RH  030%=      5-min Rain = 0
KCO1 120508Z 10004KT 30/11 A3001 RMK A01 T02990107  RH  031%=      5-min Rain = 0
KCO1 120509Z 09004KT 30/11 A3001 RMK A01 T02970107  RH  031%=      5-min Rain = 0
KCO1 120510Z 09004KT 30/11 A3001 RMK A01 T02960107  RH  031%=      5-min Rain = 0
KCO1 120511Z 08004KT 30/11 A3001 RMK A01 T02950106  RH  031%=      5-min Rain = 0
KCO1 120512Z 07004KT 29/11 A3001 RMK A01 T02930106  RH  031%=      5-min Rain = 0
KCO1 120513Z 06004KT 29/11 A3001 RMK A01 T02920106  RH  032%=      5-min Rain = 0
KCO1 120514Z 05005KT 29/11 A3001 RMK A01 T02900106  RH  032%=      5-min Rain = 0
KCO1 120515Z 05005KT 29/11 A3001 RMK A01 T02880105  RH  032%=      5-min Rain = 0
KCO1 120516Z 04006KT 29/11 A3001 RMK A01 T02860105  RH  032%=      5-min Rain = 0
KCO1 120517Z 04007KT 28/11 A3001 RMK A01 T02840105  RH  033%=      5-min Rain = 0
KCO1 120518Z 04007KT 28/11 A3001 RMK A01 T02820105  RH  033%=      5-min Rain = 0
KCO1 120519Z 04007KT 28/11 A3001 RMK A01 T02810105  RH  033%=      5-min Rain = 0
KCO1 120520Z 04008KT 28/11 A3001 RMK A01 T02800106  RH  034%=      5-min Rain = 0
KCO1 120521Z 03007KT 28/11 A3001 RMK A01 T02790106  RH  034%=      5-min Rain = 0
KCO1 120522Z 03007KT 28/11 A3001 RMK A01 T02780106  RH  034%=      5-min Rain = 0
KCO1 120523Z 02007KT 28/11 A3001 RMK A01 T02780105  RH  034%=      5-min Rain = 0
KCO1 120524Z 03007KT 28/11 A3001 RMK A01 T02770105  RH  034%=      5-min Rain = 0
KCO1 120525Z 03007KT 28/11 A3001 RMK A01 T02760105  RH  034%=      5-min Rain = 0
KCO1 120526Z 03006KT 28/11 A3001 RMK A01 T02750105  RH  034%=      5-min Rain = 0
KCO1 120527Z 04007KT 28/11 A3001 RMK A01 T02750105  RH  035%=      5-min Rain = 0
KCO1 120528Z 03007KT 28/11 A3001 RMK A01 T02750106  RH  035%=      5-min Rain = 0
KCO1 120529Z 04007KT 28/11 A3001 RMK A01 T02760106  RH  035%=      5-min Rain = 0
KCO1 120530Z 04007KT 28/11 A3001 RMK A01 T02770106  RH  034%=      5-min Rain = 0
KCO1 120531Z 04006KT 28/11 A3001 RMK A01 T02770106  RH  034%=      5-min Rain = 0
KCO1 120532Z 04006KT 28/11 A3001 RMK A01 T02780105  RH  034%=      5-min Rain = 0
KCO1 120533Z 04005KT 28/11 A3001 RMK A01 T02780105  RH  034%=      5-min Rain = 0
KCO1 120534Z 05007KT 28/11 A3001 RMK A01 T02790105  RH  034%=      5-min Rain = 0
KCO1 120535Z 05007KT 28/11 A3001 RMK A01 T02790105  RH  034%=      5-min Rain = 0
KCO1 120536Z 05007KT 28/10 A3001 RMK A01 T02780104  RH  034%=      5-min Rain = 0
KCO1 120537Z 06006KT 28/11 A3001 RMK A01 T02790105  RH  034%=      5-min Rain = 0
KCO1 120538Z 06006KT 28/11 A3001 RMK A01 T02790105  RH  034%=      5-min Rain = 0
KCO1 120539Z 06006KT 28/11 A3001 RMK A01 T02800105  RH  034%=      5-min Rain = 0
KCO1 120540Z 07006KT 28/11 A3001 RMK A01 T02800106  RH  034%=      5-min Rain = 0
KCO1 120541Z 07006KT 28/11 A3001 RMK A01 T02800106  RH  034%=      5-min Rain = 0
KCO1 120542Z 07005KT 28/11 A3001 RMK A01 T02810106  RH  034%=      5-min Rain = 0
KCO1 120543Z 07005KT 28/11 A3001 RMK A01 T02810106  RH  034%=      5-min Rain = 0
KCO1 120544Z 08004KT 28/11 A3001 RMK A01 T02810106  RH  034%=      5-min Rain = 0
KCO1 120545Z 07003KT 28/11 A3001 RMK A01 T02800106  RH  034%=      5-min Rain = 0
KCO1 120546Z 08004KT 28/11 A3001 RMK A01 T02800106  RH  034%=      5-min Rain = 0
KCO1 120547Z 08004KT 28/11 A3001 RMK A01 T02810107  RH  034%=      5-min Rain = 0
KCO1 120548Z 08004KT 28/11 A3001 RMK A01 T02800107  RH  034%=      5-min Rain = 0
KCO1 120549Z 08004KT 28/11 A3001 RMK A01 T02800107  RH  034%=      5-min Rain = 0
KCO1 120550Z 08005KT 28/11 A3001 RMK A01 T02780106  RH  034%=      5-min Rain = 0
KCO1 120551Z 08004KT 28/11 A3001 RMK A01 T02770106  RH  034%=      5-min Rain = 0
KCO1 120552Z 08004KT 28/11 A3001 RMK A01 T02760106  RH  035%=      5-min Rain = 0
KCO1 120553Z 08004KT 28/11 A30 RMK A01 T02760106  RH  035%=      5-min Rain = 0
KCO1 120554Z 07004KT 28/11 A30 RMK A01 T02750106  RH  035%=      5-min Rain = 0
KCO1 120555Z 08005KT 28/11 A30 RMK A01 T02750106  RH  035%=      5-min Rain = 0
KCO1 120556Z 08005KT 28/11 A30 RMK A01 T02750105  RH  035%=      5-min Rain = 0
KCO1 120557Z 08004KT 28/11 A30 RMK A01 T02750105  RH  035%=      5-min Rain = 0
KCO1 120558Z 08004KT 28/11 A30 RMK A01 T02750105  RH  035%=      5-min Rain = 0
KCO1 120559Z 07004KT 28/11 A30 RMK A01 T02750105  RH  035%=      5-min Rain = 0
KCO1 120600Z 08004KT 28/11 A30 RMK A01 T02750105  RH  035%=      5-min Rain = 0
KCO1 120601Z 08005KT 27/11 A30 RMK A01 T02730105  RH  035%=      5-min Rain = 0
KCO1 120602Z 07005KT 27/11 A30 RMK A01 T02730105  RH  035%=      5-min Rain = 0
KCO1 120603Z 07005KT 27/11 A30 RMK A01 T02720105  RH  035%=      5-min Rain = 0
KCO1 120604Z 07005KT 27/11 A30 RMK A01 T02720106  RH  035%=      5-min Rain = 0
KCO1 120605Z 07005KT 27/11 A30 RMK A01 T02730106  RH  035%=      5-min Rain = 0
KCO1 120606Z 07005KT 27/11 A30 RMK A01 T02740105  RH  035%=      5-min Rain = 0
KCO1 120607Z 07005KT 27/11 A30 RMK A01 T02730105  RH  035%=      5-min Rain = 0
KCO1 120608Z 07004KT 27/11 A30 RMK A01 T02730105  RH  035%=      5-min Rain = 0
KCO1 120609Z 07004KT 27/11 A30 RMK A01 T02730105  RH  035%=      5-min Rain = 0
KCO1 120610Z 08003KT 27/11 A30 RMK A01 T02730105  RH  035%=      5-min Rain = 0
KCO1 120611Z 08003KT 27/11 A30 RMK A01 T02730105  RH  035%=      5-min Rain = 0
KCO1 120612Z 08003KT 27/11 A30 RMK A01 T02730105  RH  035%=      5-min Rain = 0
KCO1 120613Z 08003KT 27/11 A30 RMK A01 T02740105  RH  035%=      5-min Rain = 0
KCO1 120614Z 08003KT 27/11 A30 RMK A01 T02740105  RH  035%=      5-min Rain = 0
KCO1 120615Z 08003KT 27/11 A30 RMK A01 T02730105  RH  035%=      5-min Rain = 0
KCO1 120616Z 08003KT 27/11 A30 RMK A01 T02730105  RH  035%=      5-min Rain = 0
KCO1 120617Z 08003KT 27/11 A30 RMK A01 T02730105  RH  035%=      5-min Rain = 0
KCO1 120618Z 08003KT 27/11 A30 RMK A01 T02730105  RH  035%=      5-min Rain = 0
KCO1 120619Z 08004KT 27/11 A30 RMK A01 T02720105  RH  035%=      5-min Rain = 0
KCO1 120620Z 08004KT 27/10 A30 RMK A01 T02710104  RH  035%=      5-min Rain = 0
KCO1 120621Z 08005KT 27/10 A30 RMK A01 T02690103  RH  035%=      5-min Rain = 0
KCO1 120622Z 08005KT 27/10 A30 RMK A01 T02680104  RH  036%=      5-min Rain = 0
KCO1 120623Z 08006KT 27/10 A30 RMK A01 T02680104  RH  036%=      5-min Rain = 0
KCO1 120624Z 08006KT 27/10 A30 RMK A01 T02670104  RH  036%=      5-min Rain = 0
KCO1 120625Z 08006KT 27/10 A30 RMK A01 T02660104  RH  036%=      5-min Rain = 0
KCO1 120626Z 08005KT 27/10 A30 RMK A01 T02660104  RH  036%=      5-min Rain = 0
KCO1 120627Z 08005KT 27/10 A30 RMK A01 T02650104  RH  036%=      5-min Rain = 0
KCO1 120628Z 08005KT 26/10 A30 RMK A01 T02640104  RH  037%=      5-min Rain = 0
KCO1 120629Z 09005KT 26/10 A30 RMK A01 T02640104  RH  037%=      5-min Rain = 0
KCO1 120630Z 08005KT 26/10 A30 RMK A01 T02640104  RH  037%=      5-min Rain = 0
KCO1 120631Z 09005KT 26/10 A30 RMK A01 T02640104  RH  037%=      5-min Rain = 0
KCO1 120632Z 09004KT 27/11 A30 RMK A01 T02660105  RH  036%=      5-min Rain = 0
KCO1 120633Z 09004KT 27/11 A30 RMK A01 T02670105  RH  036%=      5-min Rain = 0
KCO1 120634Z 09004KT 27/10 A30 RMK A01 T02670104  RH  036%=      5-min Rain = 0
KCO1 120635Z 09004KT 27/10 A30 RMK A01 T02660104  RH  036%=      5-min Rain = 0
KCO1 120636Z 09004KT 27/10 A30 RMK A01 T02660103  RH  036%=      5-min Rain = 0
KCO1 120637Z 09004KT 27/10 A30 RMK A01 T02650103  RH  036%=      5-min Rain = 0
KCO1 120638Z 09005KT 27/10 A2999 RMK A01 T02650103  RH  036%=      5-min Rain = 0
KCO1 120639Z 09005KT 26/10 A2999 RMK A01 T02640102  RH  036%=      5-min Rain = 0
KCO1 120640Z 09005KT 26/10 A2999 RMK A01 T02630102  RH  036%=      5-min Rain = 0
KCO1 120641Z 09005KT 26/10 A2999 RMK A01 T02620102  RH  037%=      5-min Rain = 0
KCO1 120642Z 09005KT 26/10 A2999 RMK A01 T02610101  RH  037%=      5-min Rain = 0
KCO1 120643Z 09004KT 26/10 A2999 RMK A01 T02600101  RH  037%=      5-min Rain = 0
KCO1 120644Z 09004KT 26/10 A2999 RMK A01 T02600101  RH  037%=      5-min Rain = 0
KCO1 120645Z 09004KT 26/10 A2999 RMK A01 T02600102  RH  037%=      5-min Rain = 0
KCO1 120646Z 09004KT 26/10 A2999 RMK A01 T02590101  RH  037%=      5-min Rain = 0
KCO1 120647Z 09004KT 26/10 A2999 RMK A01 T02590102  RH  037%=      5-min Rain = 0
KCO1 120648Z 09004KT 26/10 A2999 RMK A01 T02590102  RH  037%=      5-min Rain = 0
KCO1 120649Z 09004KT 26/10 A2999 RMK A01 T02590102  RH  037%=      5-min Rain = 0
KCO1 120650Z 09004KT 26/10 A2999 RMK A01 T02580101  RH  037%=      5-min Rain = 0
KCO1 120651Z 09005KT 26/10 A2999 RMK A01 T02590101  RH  037%=      5-min Rain = 0
KCO1 120652Z 09005KT 26/10 A2999 RMK A01 T02580101  RH  037%=      5-min Rain = 0
KCO1 120653Z 09005KT 26/10 A2999 RMK A01 T02580101  RH  037%=      5-min Rain = 0
KCO1 120654Z 09005KT 26/10 A2999 RMK A01 T02580101  RH  037%=      5-min Rain = 0
KCO1 120655Z 09005KT 26/10 A2999 RMK A01 T02570101  RH  037%=      5-min Rain = 0
KCO1 120656Z 09006KT 26/10 A2999 RMK A01 T02560101  RH  038%=      5-min Rain = 0
KCO1 120657Z 09006KT 26/10 A2999 RMK A01 T02560102  RH  038%=      5-min Rain = 0
KCO1 120658Z 10005KT 26/10 A2999 RMK A01 T02560102  RH  038%=      5-min Rain = 0
KCO1 120659Z 10005KT 26/10 A2999 RMK A01 T02560102  RH  038%=      5-min Rain = 0
KCO1 120700Z 10005KT 26/10 A2999 RMK A01 T02550102  RH  038%=      5-min Rain = 0
KCO1 120701Z 10005KT 25/10 A2999 RMK A01 T02540102  RH  038%=      5-min Rain = 0
KCO1 120702Z 09005KT 25/10 A2999 RMK A01 T02540102  RH  038%=      5-min Rain = 0
KCO1 120703Z 09005KT 25/10 A2999 RMK A01 T02540102  RH  038%=      5-min Rain = 0
KCO1 120704Z 10006KT 25/10 A2999 RMK A01 T02540102  RH  038%=      5-min Rain = 0
KCO1 120705Z 09006KT 25/10 A2999 RMK A01 T02540103  RH  039%=      5-min Rain = 0
KCO1 120706Z 09006KT 25/10 A2999 RMK A01 T02530102  RH  039%=      5-min Rain = 0
KCO1 120707Z 09005KT 25/10 A2999 RMK A01 T02530102  RH  039%=      5-min Rain = 0
KCO1 120708Z 09005KT 25/10 A2999 RMK A01 T02530102  RH  039%=      5-min Rain = 0
KCO1 120709Z 09005KT 25/10 A2998 RMK A01 T02540103  RH  039%=      5-min Rain = 0
KCO1 120710Z 10005KT 25/10 A2998 RMK A01 T02540104  RH  039%=      5-min Rain = 0
KCO1 120711Z 10005KT 25/10 A2998 RMK A01 T02540103  RH  039%=      5-min Rain = 0
KCO1 120712Z 10005KT 25/10 A2998 RMK A01 T02540103  RH  039%=      5-min Rain = 0
KCO1 120713Z 10006KT 25/10 A2998 RMK A01 T02540103  RH  039%=      5-min Rain = 0
KCO1 120714Z 10006KT 25/10 A2998 RMK A01 T02540103  RH  039%=      5-min Rain = 0
KCO1 120715Z 10006KT 25/10 A2998 RMK A01 T02540103  RH  039%=      5-min Rain = 0
KCO1 120716Z 10006KT 25/10 A2998 RMK A01 T02530103  RH  039%=      5-min Rain = 0
KCO1 120717Z 10006KT 25/10 A2998 RMK A01 T02520104  RH  039%=      5-min Rain = 0
KCO1 120718Z 10006KT 25/10 A2998 RMK A01 T02510104  RH  039%=      5-min Rain = 0
KCO1 120719Z 10007KT 25/11 A2998 RMK A01 T02510105  RH  040%=      5-min Rain = 0
KCO1 120720Z 10006KT 25/11 A2998 RMK A01 T02510105  RH  040%=      5-min Rain = 0
KCO1 120721Z 10007KT 25/11 A2998 RMK A01 T02500105  RH  040%=      5-min Rain = 0
KCO1 120722Z 10006KT 25/10 A2998 RMK A01 T02500104  RH  040%=      5-min Rain = 0
KCO1 120723Z 10007KT 25/10 A2998 RMK A01 T02500104  RH  040%=      5-min Rain = 0
KCO1 120724Z 10006KT 25/10 A2998 RMK A01 T02500104  RH  040%=      5-min Rain = 0
KCO1 120725Z 10006KT 25/11 A2998 RMK A01 T02500105  RH  040%=      5-min Rain = 0
KCO1 120726Z 10007KT 25/11 A2998 RMK A01 T02510105  RH  040%=      5-min Rain = 0
KCO1 120727Z 10006KT 25/11 A2998 RMK A01 T02510105  RH  040%=      5-min Rain = 0
KCO1 120728Z 10006KT 25/10 A2998 RMK A01 T02510104  RH  040%=      5-min Rain = 0
KCO1 120729Z 10006KT 25/11 A2998 RMK A01 T02510105  RH  040%=      5-min Rain = 0
KCO1 120730Z 10006KT 25/11 A2998 RMK A01 T02510105  RH  040%=      5-min Rain = 0
KCO1 120731Z 10006KT 25/10 A2998 RMK A01 T02510104  RH  040%=      5-min Rain = 0
KCO1 120732Z 10006KT 25/10 A2999 RMK A01 T02510104  RH  040%=      5-min Rain = 0
KCO1 120733Z 10006KT 25/10 A2999 RMK A01 T02510104  RH  039%=      5-min Rain = 0
KCO1 120734Z 10006KT 25/10 A2999 RMK A01 T02510104  RH  039%=      5-min Rain = 0
KCO1 120735Z 10006KT 25/10 A2999 RMK A01 T02510103  RH  039%=      5-min Rain = 0
KCO1 120736Z 09005KT 25/10 A2999 RMK A01 T02500103  RH  040%=      5-min Rain = 0
KCO1 120737Z 09005KT 25/10 A2999 RMK A01 T02500103  RH  040%=      5-min Rain = 0
KCO1 120738Z 09005KT 25/10 A2999 RMK A01 T02500104  RH  040%=      5-min Rain = 0
KCO1 120739Z 09006KT 25/10 A2999 RMK A01 T02500104  RH  040%=      5-min Rain = 0
KCO1 120740Z 09006KT 25/10 A2999 RMK A01 T02490104  RH  040%=      5-min Rain = 0
KCO1 120741Z 09006KT 25/10 A2999 RMK A01 T02490104  RH  040%=      5-min Rain = 0
KCO1 120742Z 08007KT 25/10 A2999 RMK A01 T02490104  RH  040%=      5-min Rain = 0
KCO1 120743Z 08007KT 25/11 A2999 RMK A01 T02490105  RH  040%=      5-min Rain = 0
KCO1 120744Z 08006KT 25/11 A2999 RMK A01 T02500106  RH  040%=      5-min Rain = 0
KCO1 120745Z 08006KT 25/11 A2999 RMK A01 T02500106  RH  040%=      5-min Rain = 0
KCO1 120746Z 08006KT 25/11 A2999 RMK A01 T02500106  RH  041%=      5-min Rain = 0
KCO1 120747Z 07006KT 25/11 A2999 RMK A01 T02510107  RH  040%=      5-min Rain = 0
KCO1 120748Z 08006KT 25/11 A2999 RMK A01 T02520107  RH  040%=      5-min Rain = 0
KCO1 120749Z 08006KT 25/11 A2999 RMK A01 T02530107  RH  040%=      5-min Rain = 0
KCO1 120750Z 08006KT 25/11 A2999 RMK A01 T02540107  RH  040%=      5-min Rain = 0
KCO1 120751Z 08006KT 26/11 A2999 RMK A01 T02550107  RH  039%=      5-min Rain = 0
KCO1 120752Z 08007KT 26/11 A2999 RMK A01 T02560106  RH  039%=      5-min Rain = 0
KCO1 120753Z 08007KT 26/11 A2999 RMK A01 T02570106  RH  039%=      5-min Rain = 0
KCO1 120754Z 08007KT 26/11 A2999 RMK A01 T02570106  RH  039%=      5-min Rain = 0
KCO1 120755Z 08007KT 26/11 A2999 RMK A01 T02570105  RH  039%=      5-min Rain = 0
KCO1 120756Z 08007KT 26/11 A2999 RMK A01 T02570106  RH  039%=      5-min Rain = 0
KCO1 120757Z 08007KT 26/11 A2999 RMK A01 T02570105  RH  039%=      5-min Rain = 0
KCO1 120758Z 08006KT 26/11 A2999 RMK A01 T02570105  RH  039%=      5-min Rain = 0
KCO1 120759Z 08005KT 26/11 A2999 RMK A01 T02560105  RH  039%=      5-min Rain = 0
KCO1 120800Z 08006KT 26/11 A2999 RMK A01 T02560105  RH  039%=      5-min Rain = 0
KCO1 120801Z 08006KT 26/11 A2999 RMK A01 T02560105  RH  039%=      5-min Rain = 0
KCO1 120802Z 08006KT 26/11 A2999 RMK A01 T02550105  RH  039%=      5-min Rain = 0
KCO1 120803Z 08005KT 26/11 A2999 RMK A01 T02550105  RH  039%=      5-min Rain = 0
KCO1 120804Z 08006KT 25/11 A2999 RMK A01 T02540105  RH  039%=      5-min Rain = 0
KCO1 120805Z 08006KT 25/11 A2999 RMK A01 T02530105  RH  039%=      5-min Rain = 0
KCO1 120806Z 08006KT 25/11 A2999 RMK A01 T02530105  RH  039%=      5-min Rain = 0
KCO1 120807Z 07006KT 25/11 A2999 RMK A01 T02530105  RH  039%=      5-min Rain = 0
KCO1 120808Z 07006KT 25/11 A2999 RMK A01 T02530105  RH  039%=      5-min Rain = 0
KCO1 120809Z 07005KT 25/11 A2999 RMK A01 T02530105  RH  039%=      5-min Rain = 0
KCO1 120810Z 07005KT 25/11 A2999 RMK A01 T02530105  RH  039%=      5-min Rain = 0
KCO1 120811Z 07005KT 25/11 A2999 RMK A01 T02530105  RH  039%=      5-min Rain = 0
KCO1 120812Z 07005KT 25/11 A2999 RMK A01 T02540106  RH  039%=      5-min Rain = 0
KCO1 120813Z 07004KT 25/11 A2999 RMK A01 T02530106  RH  040%=      5-min Rain = 0
KCO1 120814Z 07005KT 25/11 A2999 RMK A01 T02530106  RH  040%=      5-min Rain = 0
KCO1 120815Z 07004KT 25/11 A2999 RMK A01 T02540106  RH  040%=      5-min Rain = 0
KCO1 120816Z 07004KT 25/11 A2998 RMK A01 T02540106  RH  040%=      5-min Rain = 0
KCO1 120817Z 07004KT 25/11 A2998 RMK A01 T02540107  RH  040%=      5-min Rain = 0
KCO1 120818Z 08004KT 25/11 A2998 RMK A01 T02530107  RH  040%=      5-min Rain = 0
KCO1 120819Z 08005KT 25/11 A2998 RMK A01 T02520107  RH  040%=      5-min Rain = 0
KCO1 120820Z 08005KT 25/11 A2998 RMK A01 T02520107  RH  040%=      5-min Rain = 0
KCO1 120821Z 08004KT 25/11 A2998 RMK A01 T02510106  RH  040%=      5-min Rain = 0
KCO1 120822Z 08004KT 25/11 A2998 RMK A01 T02510106  RH  040%=      5-min Rain = 0
KCO1 120823Z 08004KT 25/11 A2999 RMK A01 T02500106  RH  040%=      5-min Rain = 0
KCO1 120824Z 08004KT 25/11 A2999 RMK A01 T02480106  RH  041%=      5-min Rain = 0
KCO1 120825Z 09005KT 25/11 A2998 RMK A01 T02470106  RH  041%=      5-min Rain = 0
KCO1 120826Z 09005KT 25/11 A2998 RMK A01 T02470105  RH  041%=      5-min Rain = 0
KCO1 120827Z 09005KT 25/11 A2998 RMK A01 T02460106  RH  041%=      5-min Rain = 0
KCO1 120828Z 09005KT 25/11 A2998 RMK A01 T02460106  RH  041%=      5-min Rain = 0
KCO1 120829Z 09006KT 25/11 A2998 RMK A01 T02460106  RH  041%=      5-min Rain = 0
KCO1 120830Z 09006KT 25/11 A2998 RMK A01 T02450106  RH  041%=      5-min Rain = 0
KCO1 120831Z 09006KT 24/11 A2998 RMK A01 T02440106  RH  042%=      5-min Rain = 0
KCO1 120832Z 09006KT 24/11 A2998 RMK A01 T02440105  RH  042%=      5-min Rain = 0
KCO1 120833Z 09006KT 24/11 A2998 RMK A01 T02430105  RH  042%=      5-min Rain = 0
KCO1 120834Z 09006KT 24/11 A2998 RMK A01 T02430105  RH  042%=      5-min Rain = 0
KCO1 120835Z 09006KT 24/11 A2998 RMK A01 T02430106  RH  042%=      5-min Rain = 0
KCO1 120836Z 10006KT 24/11 A2998 RMK A01 T02430106  RH  042%=      5-min Rain = 0
KCO1 120837Z 10007KT 24/11 A2998 RMK A01 T02430105  RH  042%=      5-min Rain = 0
KCO1 120838Z 10007KT 24/11 A2998 RMK A01 T02430106  RH  042%=      5-min Rain = 0
KCO1 120839Z 10007KT 24/11 A2998 RMK A01 T02440106  RH  042%=      5-min Rain = 0
KCO1 120840Z 10007KT 24/11 A2998 RMK A01 T02440106  RH  042%=      5-min Rain = 0
KCO1 120841Z 10007KT 24/11 A2998 RMK A01 T02440106  RH  042%=      5-min Rain = 0
KCO1 120842Z 10007KT 25/11 A2998 RMK A01 T02450106  RH  042%=      5-min Rain = 0
KCO1 120843Z 10006KT 25/11 A2998 RMK A01 T02460106  RH  041%=      5-min Rain = 0
KCO1 120844Z 10007KT 25/11 A2998 RMK A01 T02460106  RH  041%=      5-min Rain = 0
KCO1 120845Z 10007KT 25/11 A2998 RMK A01 T02460105  RH  041%=      5-min Rain = 0
KCO1 120846Z 10007KT 25/10 A2998 RMK A01 T02450104  RH  041%=      5-min Rain = 0
KCO1 120847Z 10007KT 25/11 A2998 RMK A01 T02450105  RH  041%=      5-min Rain = 0
KCO1 120848Z 10007KT 24/11 A2998 RMK A01 T02440105  RH  041%=      5-min Rain = 0
KCO1 120849Z 10007KT 24/11 A2998 RMK A01 T02440105  RH  041%=      5-min Rain = 0
KCO1 120850Z 11007KT 24/11 A2998 RMK A01 T02440105  RH  041%=      5-min Rain = 0
KCO1 120851Z 11006KT 24/11 A2998 RMK A01 T02440105  RH  041%=      5-min Rain = 0
KCO1 120852Z 11006KT 24/11 A2998 RMK A01 T02440105  RH  042%=      5-min Rain = 0
KCO1 120853Z 11007KT 24/11 A2998 RMK A01 T02440106  RH  042%=      5-min Rain = 0
KCO1 120854Z 11007KT 24/11 A2998 RMK A01 T02440107  RH  042%=      5-min Rain = 0
KCO1 120855Z 11008KT 24/11 A2998 RMK A01 T02430107  RH  042%=      5-min Rain = 0
KCO1 120856Z 11008KT 24/11 A2998 RMK A01 T02430107  RH  042%=      5-min Rain = 0
KCO1 120857Z 11007KT 24/11 A2998 RMK A01 T02430108  RH  043%=      5-min Rain = 0
KCO1 120858Z 12006KT 24/11 A2998 RMK A01 T02430109  RH  043%=      5-min Rain = 0
KCO1 120859Z 11007KT 24/11 A2998 RMK A01 T02420108  RH  043%=      5-min Rain = 0
KCO1 120900Z 11007KT 24/11 A2998 RMK A01 T02420107  RH  043%=      5-min Rain = 0
KCO1 120901Z 11007KT 24/11 A2998 RMK A01 T02420107  RH  043%=      5-min Rain = 0
KCO1 120902Z 11008KT 24/11 A2997 RMK A01 T02410106  RH  042%=      5-min Rain = 0
KCO1 120903Z 11008KT 24/11 A2997 RMK A01 T02410106  RH  042%=      5-min Rain = 0
KCO1 120904Z 12007KT 24/11 A2997 RMK A01 T02410105  RH  042%=      5-min Rain = 0
KCO1 120905Z 12007KT 24/11 A2997 RMK A01 T02420106  RH  042%=      5-min Rain = 0
KCO1 120906Z 12007KT 24/11 A2997 RMK A01 T02420105  RH  042%=      5-min Rain = 0
KCO1 120907Z 12007KT 24/11 A2997 RMK A01 T02420105  RH  042%=      5-min Rain = 0
KCO1 120908Z 12007KT 24/11 A2997 RMK A01 T02420105  RH  042%=      5-min Rain = 0
KCO1 120909Z 13007KT 24/11 A2997 RMK A01 T02420106  RH  042%=      5-min Rain = 0
KCO1 120910Z 13008KT 24/11 A2997 RMK A01 T02410107  RH  043%=      5-min Rain = 0
KCO1 120911Z 13008KT 24/11 A2997 RMK A01 T02400107  RH  043%=      5-min Rain = 0
KCO1 120912Z 13008KT 24/11 A2997 RMK A01 T02400107  RH  043%=      5-min Rain = 0
KCO1 120913Z 13008KT 24/11 A2997 RMK A01 T02400108  RH  043%=      5-min Rain = 0
KCO1 120914Z 13008KT 24/11 A2997 RMK A01 T02400107  RH  043%=      5-min Rain = 0
KCO1 120915Z 13008KT 24/11 A2997 RMK A01 T02400107  RH  043%=      5-min Rain = 0
KCO1 120916Z 13008KT 24/11 A2997 RMK A01 T02400107  RH  043%=      5-min Rain = 0
KCO1 120917Z 13008KT 24/11 A2997 RMK A01 T02400107  RH  043%=      5-min Rain = 0
KCO1 120918Z 13009KT 24/11 A2997 RMK A01 T02400107  RH  043%=      5-min Rain = 0
KCO1 120919Z 13009KT 24/11 A2997 RMK A01 T02400107  RH  043%=      5-min Rain = 0
KCO1 120920Z 13009KT 24/11 A2997 RMK A01 T02400107  RH  043%=      5-min Rain = 0
KCO1 120921Z 13009KT 24/11 A2997 RMK A01 T02410106  RH  043%=      5-min Rain = 0
KCO1 120922Z 13009KT 24/11 A2997 RMK A01 T02410106  RH  043%=      5-min Rain = 0
KCO1 120923Z 13009KT 24/11 A2997 RMK A01 T02420106  RH  042%=      5-min Rain = 0
KCO1 120924Z 13009KT 24/11 A2997 RMK A01 T02420106  RH  042%=      5-min Rain = 0
KCO1 120925Z 13009KT 24/11 A2997 RMK A01 T02420106  RH  042%=      5-min Rain = 0
KCO1 120926Z 13009KT 24/11 A2997 RMK A01 T02420106  RH  042%=      5-min Rain = 0
KCO1 120927Z 13009KT 24/11 A2997 RMK A01 T02430106  RH  042%=      5-min Rain = 0
KCO1 120928Z 14009KT 24/11 A2997 RMK A01 T02430105  RH  042%=      5-min Rain = 0
KCO1 120929Z 14008KT 24/11 A2997 RMK A01 T02420105  RH  042%=      5-min Rain = 0
KCO1 120930Z 14009KT 24/10 A2996 RMK A01 T02420104  RH  042%=      5-min Rain = 0
KCO1 120931Z 14009KT 24/11 A2996 RMK A01 T02430105  RH  042%=      5-min Rain = 0
KCO1 120932Z 14008KT 24/10 A2996 RMK A01 T02430104  RH  041%=      5-min Rain = 0
KCO1 120933Z 14009KT 24/10 A2996 RMK A01 T02440104  RH  041%=      5-min Rain = 0
KCO1 120934Z 14010KT 24/10 A2996 RMK A01 T02430104  RH  041%=      5-min Rain = 0
KCO1 120935Z 14010KT 24/10 A2996 RMK A01 T02430104  RH  041%=      5-min Rain = 0
KCO1 120936Z 14010KT 24/10 A2996 RMK A01 T02430103  RH  041%=      5-min Rain = 0
KCO1 120937Z 14010KT 24/10 A2995 RMK A01 T02440103  RH  041%=      5-min Rain = 0
KCO1 120938Z 15011KT 25/10 A2995 RMK A01 T02450102  RH  041%=      5-min Rain = 0
KCO1 120939Z 14010KT 25/10 A2995 RMK A01 T02460102  RH  040%=      5-min Rain = 0
KCO1 120940Z 15009KT 25/10 A2995 RMK A01 T02460102  RH  040%=      5-min Rain = 0
KCO1 120941Z 15010KT 25/10 A2995 RMK A01 T02460102  RH  040%=      5-min Rain = 0
KCO1 120942Z 15010KT 25/10 A2995 RMK A01 T02460102  RH  040%=      5-min Rain = 0
KCO1 120943Z 15010KT 25/10 A2995 RMK A01 T02460102  RH  040%=      5-min Rain = 0
KCO1 120944Z 15011KT 25/10 A2995 RMK A01 T02460102  RH  040%=      5-min Rain = 0
KCO1 120945Z 15011KT 25/10 A2995 RMK A01 T02470102  RH  040%=      5-min Rain = 0
KCO1 120946Z 15011KT 25/10 A2995 RMK A01 T02480101  RH  040%=      5-min Rain = 0
KCO1 120947Z 15011KT 25/10 A2995 RMK A01 T02480101  RH  039%=      5-min Rain = 0
KCO1 120948Z 15011KT 25/10 A2995 RMK A01 T02480101  RH  039%=      5-min Rain = 0
KCO1 120949Z 14010KT 25/10 A2995 RMK A01 T02480101  RH  039%=      5-min Rain = 0
KCO1 120950Z 14010KT 25/10 A2995 RMK A01 T02480100  RH  039%=      5-min Rain = 0
KCO1 120951Z 14009KT 25/10 A2995 RMK A01 T02470100  RH  039%=      5-min Rain = 0
KCO1 120952Z 14009KT 25/10 A2995 RMK A01 T02470100  RH  039%=      5-min Rain = 0
KCO1 120953Z 14008KT 25/10 A2995 RMK A01 T02470100  RH  039%=      5-min Rain = 0
KCO1 120954Z 14009KT 25/10 A2995 RMK A01 T02470100  RH  039%=      5-min Rain = 0
KCO1 120955Z 14009KT 25/10 A2996 RMK A01 T02460100  RH  040%=      5-min Rain = 0
KCO1 120956Z 14008KT 25/10 A2996 RMK A01 T02450100  RH  040%=      5-min Rain = 0
KCO1 120957Z 14007KT 24/10 A2996 RMK A01 T02440099  RH  040%=      5-min Rain = 0
KCO1 120958Z 14006KT 24/10 A2996 RMK A01 T02440099  RH  040%=      5-min Rain = 0
KCO1 120959Z 14007KT 24/10 A2996 RMK A01 T02430099  RH  040%=      5-min Rain = 0
KCO1 121000Z 14006KT 24/10 A2996 RMK A01 T02420100  RH  040%=      5-min Rain = 0
KCO1 121001Z 14006KT 24/10 A2996 RMK A01 T02420100  RH  041%=      5-min Rain = 0
KCO1 121002Z 13006KT 24/10 A2996 RMK A01 T02410100  RH  041%=      5-min Rain = 0
KCO1 121003Z 13005KT 24/10 A2996 RMK A01 T02400100  RH  041%=      5-min Rain = 0
KCO1 121004Z 13004KT 24/10 A2996 RMK A01 T02390100  RH  041%=      5-min Rain = 0
KCO1 121005Z 13004KT 24/10 A2996 RMK A01 T02380100  RH  042%=      5-min Rain = 0
KCO1 121006Z 13004KT 24/10 A2996 RMK A01 T02370100  RH  042%=      5-min Rain = 0
KCO1 121007Z 13004KT 24/10 A2996 RMK A01 T02360100  RH  042%=      5-min Rain = 0
KCO1 121008Z 13004KT 24/10 A2996 RMK A01 T02350099  RH  042%=      5-min Rain = 0
KCO1 121009Z 13005KT 23/10 A2996 RMK A01 T02330099  RH  043%=      5-min Rain = 0
KCO1 121010Z 13005KT 23/10 A2996 RMK A01 T02320099  RH  043%=      5-min Rain = 0
KCO1 121011Z 12005KT 23/10 A2996 RMK A01 T02310099  RH  043%=      5-min Rain = 0
KCO1 121012Z 13005KT 23/10 A2996 RMK A01 T02290099  RH  043%=      5-min Rain = 0
KCO1 121013Z 13005KT 23/10 A2996 RMK A01 T02280099  RH  044%=      5-min Rain = 0
KCO1 121014Z 13005KT 23/10 A2997 RMK A01 T02280099  RH  044%=      5-min Rain = 0
KCO1 121015Z 13005KT 23/10 A2997 RMK A01 T02270099  RH  044%=      5-min Rain = 0
KCO1 121016Z 13005KT 23/10 A2997 RMK A01 T02260099  RH  044%=      5-min Rain = 0
KCO1 121017Z 13005KT 23/10 A2997 RMK A01 T02260100  RH  045%=      5-min Rain = 0
KCO1 121018Z 14005KT 23/10 A2997 RMK A01 T02250100  RH  045%=      5-min Rain = 0
KCO1 121019Z 13005KT 23/10 A2997 RMK A01 T02250100  RH  045%=      5-min Rain = 0
KCO1 121020Z 13006KT 22/10 A2997 RMK A01 T02240100  RH  045%=      5-min Rain = 0
KCO1 121021Z 13006KT 22/10 A2997 RMK A01 T02230100  RH  046%=      5-min Rain = 0
KCO1 121022Z 13007KT 22/10 A2997 RMK A01 T02220100  RH  046%=      5-min Rain = 0
KCO1 121023Z 13008KT 22/10 A2997 RMK A01 T02220100  RH  046%=      5-min Rain = 0
KCO1 121024Z 12008KT 22/10 A2997 RMK A01 T02230100  RH  046%=      5-min Rain = 0
KCO1 121025Z 12008KT 22/10 A2997 RMK A01 T02230099  RH  045%=      5-min Rain = 0
KCO1 121026Z 12008KT 22/10 A2997 RMK A01 T02230100  RH  045%=      5-min Rain = 0
KCO1 121027Z 12007KT 22/10 A2997 RMK A01 T02240100  RH  045%=      5-min Rain = 0
KCO1 121028Z 12007KT 23/10 A2997 RMK A01 T02250100  RH  045%=      5-min Rain = 0
KCO1 121029Z 12007KT 23/10 A2997 RMK A01 T02260100  RH  045%=      5-min Rain = 0
KCO1 121030Z 12007KT 23/10 A2997 RMK A01 T02260100  RH  045%=      5-min Rain = 0
KCO1 121031Z 12007KT 23/10 A2997 RMK A01 T02250100  RH  045%=      5-min Rain = 0
KCO1 121032Z 12007KT 23/10 A2997 RMK A01 T02260101  RH  045%=      5-min Rain = 0
KCO1 121033Z 12006KT 23/10 A2997 RMK A01 T02270101  RH  045%=      5-min Rain = 0
KCO1 121034Z 12006KT 23/10 A2997 RMK A01 T02270101  RH  045%=      5-min Rain = 0
KCO1 121035Z 11006KT 23/10 A2997 RMK A01 T02280101  RH  045%=      5-min Rain = 0
KCO1 121036Z 11006KT 23/10 A2997 RMK A01 T02280101  RH  045%=      5-min Rain = 0
KCO1 121037Z 11007KT 23/10 A2997 RMK A01 T02280101  RH  045%=      5-min Rain = 0
KCO1 121038Z 11006KT 23/10 A2997 RMK A01 T02270101  RH  045%=      5-min Rain = 0
KCO1 121039Z 11006KT 23/10 A2997 RMK A01 T02270101  RH  045%=      5-min Rain = 0
KCO1 121040Z 10006KT 23/10 A2997 RMK A01 T02270101  RH  045%=      5-min Rain = 0
KCO1 121041Z 10006KT 23/10 A2997 RMK A01 T02270101  RH  045%=      5-min Rain = 0
KCO1 121042Z 10006KT 23/10 A2997 RMK A01 T02270101  RH  045%=      5-min Rain = 0
KCO1 121043Z 10006KT 23/10 A2997 RMK A01 T02270101  RH  045%=      5-min Rain = 0
KCO1 121044Z 09005KT 23/10 A2997 RMK A01 T02270101  RH  045%=      5-min Rain = 0
KCO1 121045Z 09006KT 23/10 A2997 RMK A01 T02260101  RH  045%=      5-min Rain = 0
KCO1 121046Z 09006KT 23/10 A2997 RMK A01 T02250101  RH  045%=      5-min Rain = 0
KCO1 121047Z 09005KT 22/10 A2997 RMK A01 T02240101  RH  045%=      5-min Rain = 0
KCO1 121048Z 09005KT 22/10 A2997 RMK A01 T02240101  RH  046%=      5-min Rain = 0
KCO1 121049Z 09005KT 22/10 A2997 RMK A01 T02230101  RH  046%=      5-min Rain = 0
KCO1 121050Z 09005KT 22/10 A2997 RMK A01 T02230101  RH  046%=      5-min Rain = 0
KCO1 121051Z 09005KT 22/10 A2997 RMK A01 T02220101  RH  046%=      5-min Rain = 0
KCO1 121052Z 10004KT 22/10 A2997 RMK A01 T02220102  RH  046%=      5-min Rain = 0
KCO1 121053Z 10005KT 22/10 A2997 RMK A01 T02220102  RH  047%=      5-min Rain = 0
KCO1 121054Z 10005KT 22/10 A2997 RMK A01 T02210102  RH  047%=      5-min Rain = 0
KCO1 121055Z 10006KT 22/10 A2997 RMK A01 T02210102  RH  047%=      5-min Rain = 0
KCO1 121056Z 11005KT 22/10 A2997 RMK A01 T02210102  RH  047%=      5-min Rain = 0
KCO1 121057Z 11006KT 22/10 A2997 RMK A01 T02210102  RH  047%=      5-min Rain = 0
KCO1 121058Z 11006KT 22/10 A2997 RMK A01 T02210102  RH  047%=      5-min Rain = 0
KCO1 121059Z 11006KT 22/10 A2997 RMK A01 T02210101  RH  047%=      5-min Rain = 0
KCO1 121100Z 11006KT 22/10 A2997 RMK A01 T02210101  RH  046%=      5-min Rain = 0
KCO1 121101Z 12006KT 22/10 A2997 RMK A01 T02220101  RH  046%=      5-min Rain = 0
KCO1 121102Z 12006KT 22/10 A2997 RMK A01 T02230101  RH  046%=      5-min Rain = 0
KCO1 121103Z 12006KT 22/10 A2997 RMK A01 T02240101  RH  046%=      5-min Rain = 0
KCO1 121104Z 11006KT 22/10 A2997 RMK A01 T02240101  RH  045%=      5-min Rain = 0
KCO1 121105Z 11006KT 23/10 A2997 RMK A01 T02250101  RH  045%=      5-min Rain = 0
KCO1 121106Z 11007KT 23/10 A2997 RMK A01 T02260101  RH  045%=      5-min Rain = 0
KCO1 121107Z 11007KT 23/10 A2997 RMK A01 T02260101  RH  045%=      5-min Rain = 0
KCO1 121108Z 11007KT 23/10 A2997 RMK A01 T02260100  RH  045%=      5-min Rain = 0
KCO1 121109Z 11007KT 23/10 A2997 RMK A01 T02260101  RH  045%=      5-min Rain = 0
KCO1 121110Z 11008KT 23/10 A2997 RMK A01 T02270100  RH  045%=      5-min Rain = 0
KCO1 121111Z 11008KT 23/10 A2997 RMK A01 T02270100  RH  045%=      5-min Rain = 0
KCO1 121112Z 11008KT 23/10 A2997 RMK A01 T02270100  RH  044%=      5-min Rain = 0
KCO1 121113Z 11008KT 23/10 A2997 RMK A01 T02270100  RH  045%=      5-min Rain = 0
KCO1 121114Z 11008KT 23/10 A2997 RMK A01 T02270100  RH  045%=      5-min Rain = 0
KCO1 121115Z 11008KT 23/10 A2997 RMK A01 T02260100  RH  045%=      5-min Rain = 0
KCO1 121116Z 11008KT 23/10 A2997 RMK A01 T02260100  RH  045%=      5-min Rain = 0
KCO1 121117Z 11008KT 23/10 A2997 RMK A01 T02260100  RH  045%=      5-min Rain = 0
KCO1 121118Z 11008KT 23/10 A2997 RMK A01 T02260100  RH  045%=      5-min Rain = 0
KCO1 121119Z 10007KT 23/10 A2997 RMK A01 T02260101  RH  045%=      5-min Rain = 0
KCO1 121120Z 10007KT 23/10 A2997 RMK A01 T02260101  RH  045%=      5-min Rain = 0
KCO1 121121Z 10007KT 23/10 A2997 RMK A01 T02260101  RH  045%=      5-min Rain = 0
KCO1 121122Z 10007KT 23/10 A2997 RMK A01 T02270100  RH  045%=      5-min Rain = 0
KCO1 121123Z 10006KT 23/10 A2997 RMK A01 T02260100  RH  045%=      5-min Rain = 0
KCO1 121124Z 10006KT 23/10 A2997 RMK A01 T02260100  RH  045%=      5-min Rain = 0
KCO1 121125Z 10006KT 23/10 A2998 RMK A01 T02250100  RH  045%=      5-min Rain = 0
KCO1 121126Z 10006KT 23/10 A2997 RMK A01 T02250099  RH  045%=      5-min Rain = 0
KCO1 121127Z 10006KT 22/10 A2998 RMK A01 T02240099  RH  045%=      5-min Rain = 0
KCO1 121128Z 10006KT 22/10 A2998 RMK A01 T02240100  RH  045%=      5-min Rain = 0
KCO1 121129Z 10005KT 22/10 A2998 RMK A01 T02230100  RH  046%=      5-min Rain = 0
KCO1 121130Z 10005KT 22/10 A2998 RMK A01 T02210100  RH  046%=      5-min Rain = 0
KCO1 121131Z 10005KT 22/10 A2998 RMK A01 T02210100  RH  046%=      5-min Rain = 0
KCO1 121132Z 10005KT 22/10 A2998 RMK A01 T02200100  RH  046%=      5-min Rain = 0
KCO1 121133Z 10005KT 22/10 A2998 RMK A01 T02190100  RH  047%=      5-min Rain = 0
KCO1 121134Z 09005KT 22/10 A2998 RMK A01 T02180100  RH  047%=      5-min Rain = 0
KCO1 121135Z 09005KT 22/10 A2998 RMK A01 T02170100  RH  047%=      5-min Rain = 0
KCO1 121136Z 09005KT 22/10 A2998 RMK A01 T02170100  RH  047%=      5-min Rain = 0
KCO1 121137Z 10005KT 22/10 A2998 RMK A01 T02160100  RH  048%=      5-min Rain = 0
KCO1 121138Z 10005KT 22/10 A2998 RMK A01 T02160100  RH  048%=      5-min Rain = 0
KCO1 121139Z 09004KT 22/10 A2998 RMK A01 T02150100  RH  048%=      5-min Rain = 0
KCO1 121140Z 09004KT 22/10 A2998 RMK A01 T02150100  RH  048%=      5-min Rain = 0
KCO1 121141Z 09004KT 22/10 A2998 RMK A01 T02150100  RH  048%=      5-min Rain = 0
KCO1 121142Z 09004KT 21/10 A2998 RMK A01 T02140099  RH  048%=      5-min Rain = 0
KCO1 121143Z 09004KT 21/10 A2998 RMK A01 T02140099  RH  048%=      5-min Rain = 0
KCO1 121144Z 08004KT 21/10 A2999 RMK A01 T02140099  RH  048%=      5-min Rain = 0
KCO1 121145Z 08004KT 21/10 A2999 RMK A01 T02140099  RH  048%=      5-min Rain = 0
KCO1 121146Z 07003KT 21/10 A2999 RMK A01 T02140099  RH  048%=      5-min Rain = 0
KCO1 121147Z 05002KT 21/10 A2999 RMK A01 T02140099  RH  048%=      5-min Rain = 0
KCO1 121148Z 04003KT 21/10 A2999 RMK A01 T02140100  RH  048%=      5-min Rain = 0
KCO1 121149Z 05004KT 21/10 A2999 RMK A01 T02140100  RH  048%=      5-min Rain = 0
KCO1 121150Z 06005KT 21/10 A2999 RMK A01 T02140100  RH  048%=      5-min Rain = 0
KCO1 121151Z 04005KT 21/10 A2999 RMK A01 T02140100  RH  048%=      5-min Rain = 0
KCO1 121152Z 05005KT 21/10 A30 RMK A01 T02130100  RH  048%=      5-min Rain = 0
KCO1 121153Z 05006KT 21/10 A30 RMK A01 T02130100  RH  048%=      5-min Rain = 0
KCO1 121154Z 05006KT 21/10 A30 RMK A01 T02120100  RH  049%=      5-min Rain = 0
KCO1 121155Z 06006KT 21/10 A30 RMK A01 T02120100  RH  049%=      5-min Rain = 0
KCO1 121156Z 06006KT 21/10 A30 RMK A01 T02120100  RH  049%=      5-min Rain = 0
KCO1 121157Z 07006KT 21/10 A30 RMK A01 T02120099  RH  048%=      5-min Rain = 0
KCO1 121158Z 07007KT 21/10 A30 RMK A01 T02130100  RH  048%=      5-min Rain = 0
KCO1 121159Z 07006KT 21/10 A30 RMK A01 T02140101  RH  049%=      5-min Rain = 0
KCO1 121200Z 07006KT 22/10 A30 RMK A01 T02150101  RH  048%=      5-min Rain = 0
KCO1 121201Z 07006KT 22/10 A30 RMK A01 T02160102  RH  048%=      5-min Rain = 0
KCO1 121202Z 07006KT 22/10 A30 RMK A01 T02160101  RH  048%=      5-min Rain = 0
KCO1 121203Z 08006KT 22/10 A30 RMK A01 T02170101  RH  048%=      5-min Rain = 0
KCO1 121204Z 08006KT 22/10 A30 RMK A01 T02170101  RH  048%=      5-min Rain = 0
KCO1 121205Z 08006KT 22/10 A30 RMK A01 T02170101  RH  048%=      5-min Rain = 0
KCO1 121206Z 08006KT 22/10 A30 RMK A01 T02160102  RH  048%=      5-min Rain = 0
KCO1 121207Z 08006KT 22/10 A30 RMK A01 T02160102  RH  048%=      5-min Rain = 0
KCO1 121208Z 08005KT 22/10 A30 RMK A01 T02160101  RH  048%=      5-min Rain = 0
KCO1 121209Z 09006KT 22/10 A30 RMK A01 T02160101  RH  048%=      5-min Rain = 0
KCO1 121210Z 09006KT 22/10 A30 RMK A01 T02170101  RH  048%=      5-min Rain = 0
KCO1 121211Z 09006KT 22/10 A30 RMK A01 T02180100  RH  047%=      5-min Rain = 0
KCO1 121212Z 09006KT 22/10 A30 RMK A01 T02180100  RH  047%=      5-min Rain = 0
KCO1 121213Z 09006KT 22/10 A30 RMK A01 T02190100  RH  047%=      5-min Rain = 0
KCO1 121214Z 09004KT 22/10 A30 RMK A01 T02200100  RH  046%=      5-min Rain = 0
KCO1 121215Z 10005KT 22/10 A30 RMK A01 T02200099  RH  046%=      5-min Rain = 0
KCO1 121216Z 10004KT 22/10 A30 RMK A01 T02200099  RH  046%=      5-min Rain = 0
KCO1 121217Z 10004KT 22/10 A30 RMK A01 T02210099  RH  046%=      5-min Rain = 0
KCO1 121218Z 10005KT 22/10 A30 RMK A01 T02210099  RH  046%=      5-min Rain = 0
KCO1 121219Z 10005KT 22/10 A30 RMK A01 T02220099  RH  046%=      5-min Rain = 0
KCO1 121220Z 10006KT 22/10 A30 RMK A01 T02220099  RH  046%=      5-min Rain = 0
KCO1 121221Z 10006KT 22/10 A30 RMK A01 T02220099  RH  045%=      5-min Rain = 0
KCO1 121222Z 10006KT 22/10 A30 RMK A01 T02230099  RH  045%=      5-min Rain = 0
KCO1 121223Z 10006KT 22/10 A30 RMK A01 T02240099  RH  045%=      5-min Rain = 0
KCO1 121224Z 11006KT 22/10 A30 RMK A01 T02240099  RH  045%=      5-min Rain = 0
KCO1 121225Z 11006KT 23/10 A30 RMK A01 T02250099  RH  045%=      5-min Rain = 0
KCO1 121226Z 11006KT 23/10 A3001 RMK A01 T02250100  RH  045%=      5-min Rain = 0
KCO1 121227Z 11006KT 23/10 A3001 RMK A01 T02260100  RH  045%=      5-min Rain = 0
KCO1 121228Z 11006KT 23/10 A3001 RMK A01 T02270100  RH  045%=      5-min Rain = 0
KCO1 121229Z 10005KT 23/10 A3001 RMK A01 T02270100  RH  044%=      5-min Rain = 0
KCO1 121230Z 10006KT 23/10 A3001 RMK A01 T02280100  RH  044%=      5-min Rain = 0
KCO1 121231Z 10005KT 23/10 A3001 RMK A01 T02280100  RH  044%=      5-min Rain = 0
KCO1 121232Z 10006KT 23/10 A3001 RMK A01 T02290100  RH  044%=      5-min Rain = 0
KCO1 121233Z 10005KT 23/10 A3001 RMK A01 T02300100  RH  043%=      5-min Rain = 0
KCO1 121234Z 10005KT 23/10 A3002 RMK A01 T02310100  RH  043%=      5-min Rain = 0
KCO1 121235Z 09006KT 23/10 A3002 RMK A01 T02310100  RH  043%=      5-min Rain = 0
KCO1 121236Z 09006KT 23/10 A3002 RMK A01 T02320100  RH  043%=      5-min Rain = 0
KCO1 121237Z 09005KT 23/10 A3002 RMK A01 T02330100  RH  043%=      5-min Rain = 0
KCO1 121238Z 08005KT 23/10 A3002 RMK A01 T02340100  RH  043%=      5-min Rain = 0
KCO1 121239Z 08004KT 23/10 A3002 RMK A01 T02340100  RH  043%=      5-min Rain = 0
KCO1 121240Z 07004KT 24/10 A3002 RMK A01 T02350101  RH  043%=      5-min Rain = 0
KCO1 121241Z 07004KT 24/10 A3002 RMK A01 T02350101  RH  043%=      5-min Rain = 0
KCO1 121242Z 08004KT 24/10 A3002 RMK A01 T02360101  RH  042%=      5-min Rain = 0
KCO1 121243Z 08004KT 24/10 A3003 RMK A01 T02360101  RH  042%=      5-min Rain = 0
KCO1 121244Z 08004KT 24/10 A3003 RMK A01 T02370101  RH  042%=      5-min Rain = 0
KCO1 121245Z 08004KT 24/10 A3003 RMK A01 T02370101  RH  042%=      5-min Rain = 0
KCO1 121246Z 09004KT 24/10 A3003 RMK A01 T02370101  RH  042%=      5-min Rain = 0
KCO1 121247Z 09003KT 24/10 A3003 RMK A01 T02380101  RH  042%=      5-min Rain = 0
KCO1 121248Z 09004KT 24/10 A3003 RMK A01 T02380101  RH  042%=      5-min Rain = 0
KCO1 121249Z 10004KT 24/10 A3003 RMK A01 T02390102  RH  042%=      5-min Rain = 0
KCO1 121250Z 10004KT 24/10 A3003 RMK A01 T02400102  RH  042%=      5-min Rain = 0
KCO1 121251Z 10004KT 24/10 A3003 RMK A01 T02410103  RH  042%=      5-min Rain = 0
KCO1 121252Z 10004KT 24/10 A3003 RMK A01 T02420102  RH  041%=      5-min Rain = 0
KCO1 121253Z 10005KT 24/10 A3003 RMK A01 T02430102  RH  041%=      5-min Rain = 0
KCO1 121254Z 10005KT 24/10 A3003 RMK A01 T02440102  RH  041%=      5-min Rain = 0
KCO1 121255Z 10005KT 25/10 A3003 RMK A01 T02450102  RH  040%=      5-min Rain = 0
KCO1 121256Z 10005KT 25/10 A3003 RMK A01 T02470102  RH  040%=      5-min Rain = 0
KCO1 121257Z 09005KT 25/10 A3003 RMK A01 T02480101  RH  040%=      5-min Rain = 0
KCO1 121258Z 09004KT 25/10 A3003 RMK A01 T02500102  RH  039%=      5-min Rain = 0
KCO1 121259Z 10004KT 25/10 A3003 RMK A01 T02500102  RH  039%=      5-min Rain = 0
KCO1 121300Z 09004KT 25/10 A3003 RMK A01 T02510101  RH  039%=      5-min Rain = 0
KCO1 121301Z 09004KT 25/10 A3003 RMK A01 T02520102  RH  039%=      5-min Rain = 0
KCO1 121302Z 09003KT 25/10 A3003 RMK A01 T02520102  RH  039%=      5-min Rain = 0
KCO1 121303Z 09003KT 25/10 A3003 RMK A01 T02540102  RH  039%=      5-min Rain = 0
KCO1 121304Z 08003KT 26/10 A3004 RMK A01 T02550103  RH  038%=      5-min Rain = 0
KCO1 121305Z 08003KT 26/10 A3004 RMK A01 T02560102  RH  038%=      5-min Rain = 0
KCO1 121306Z 09003KT 26/10 A3004 RMK A01 T02580102  RH  038%=      5-min Rain = 0
KCO1 121307Z 08003KT 26/10 A3004 RMK A01 T02590103  RH  037%=      5-min Rain = 0
KCO1 121308Z 08003KT 26/10 A3004 RMK A01 T02600102  RH  037%=      5-min Rain = 0
KCO1 121309Z 09003KT 26/10 A3004 RMK A01 T02610102  RH  037%=      5-min Rain = 0
KCO1 121310Z 09004KT 26/10 A3004 RMK A01 T02620102  RH  037%=      5-min Rain = 0
KCO1 121311Z 09004KT 26/10 A3004 RMK A01 T02620101  RH  036%=      5-min Rain = 0
KCO1 121312Z 10004KT 26/10 A3004 RMK A01 T02620102  RH  037%=      5-min Rain = 0
KCO1 121313Z 10004KT 26/10 A3004 RMK A01 T02640103  RH  036%=      5-min Rain = 0
KCO1 121314Z 10003KT 26/10 A3004 RMK A01 T02640102  RH  036%=      5-min Rain = 0
KCO1 121315Z 10004KT 27/10 A3004 RMK A01 T02650103  RH  036%=      5-min Rain = 0
KCO1 121316Z 11005KT 27/10 A3004 RMK A01 T02660102  RH  036%=      5-min Rain = 0
KCO1 121317Z 11005KT 27/10 A3004 RMK A01 T02670102  RH  036%=      5-min Rain = 0
KCO1 121318Z 11004KT 27/10 A3004 RMK A01 T02670103  RH  036%=      5-min Rain = 0
KCO1 121319Z 12006KT 27/10 A3004 RMK A01 T02670103  RH  036%=      5-min Rain = 0
KCO1 121320Z 12005KT 27/10 A3004 RMK A01 T02670103  RH  036%=      5-min Rain = 0
KCO1 121321Z 12006KT 27/10 A3004 RMK A01 T02670102  RH  036%=      5-min Rain = 0
KCO1 121322Z 12007KT 27/10 A3004 RMK A01 T02660101  RH  036%=      5-min Rain = 0
KCO1 121323Z 12006KT 27/10 A3004 RMK A01 T02660102  RH  036%=      5-min Rain = 0
KCO1 121324Z 12006KT 27/10 A3003 RMK A01 T02660103  RH  036%=      5-min Rain = 0
KCO1 121325Z 12005KT 27/10 A3003 RMK A01 T02660103  RH  036%=      5-min Rain = 0
KCO1 121326Z 12006KT 27/10 A3003 RMK A01 T02660104  RH  036%=      5-min Rain = 0
KCO1 121327Z 13007KT 27/10 A3003 RMK A01 T02660103  RH  036%=      5-min Rain = 0
KCO1 121328Z 13006KT 27/10 A3003 RMK A01 T02660103  RH  036%=      5-min Rain = 0
KCO1 121329Z 13007KT 27/10 A3003 RMK A01 T02670104  RH  036%=      5-min Rain = 0
KCO1 121330Z 13006KT 27/10 A3003 RMK A01 T02680104  RH  036%=      5-min Rain = 0
KCO1 121331Z 13006KT 27/11 A3003 RMK A01 T02680105  RH  036%=      5-min Rain = 0
KCO1 121332Z 14006KT 27/11 A3003 RMK A01 T02690105  RH  036%=      5-min Rain = 0
KCO1 121333Z 13008KT 27/10 A3003 RMK A01 T02700104  RH  035%=      5-min Rain = 0
KCO1 121334Z 14007KT 27/10 A3003 RMK A01 T02700104  RH  035%=      5-min Rain = 0
KCO1 121335Z 14007KT 27/10 A3003 RMK A01 T02700104  RH  036%=      5-min Rain = 0
KCO1 121336Z 14008KT 27/11 A3003 RMK A01 T02690105  RH  036%=      5-min Rain = 0
KCO1 121337Z 14007KT 27/11 A3003 RMK A01 T02700106  RH  036%=      5-min Rain = 0
KCO1 121338Z 13009KT 27/11 A3003 RMK A01 T02700106  RH  036%=      5-min Rain = 0
KCO1 121339Z 13009KT 27/10 A3003 RMK A01 T02700104  RH  035%=      5-min Rain = 0
KCO1 121340Z 14009KT 27/11 A3003 RMK A01 T02710106  RH  036%=      5-min Rain = 0
KCO1 121341Z 13008KT 27/11 A3003 RMK A01 T02710106  RH  035%=      5-min Rain = 0
KCO1 121342Z 14007KT 27/11 A3003 RMK A01 T02720107  RH  036%=      5-min Rain = 0
KCO1 121343Z 14007KT 27/11 A3003 RMK A01 T02730108  RH  036%=      5-min Rain = 0
KCO1 121344Z 13007KT 27/11 A3003 RMK A01 T02730109  RH  036%=      5-min Rain = 0
KCO1 121345Z 13006KT 27/11 A3003 RMK A01 T02740108  RH  035%=      5-min Rain = 0
KCO1 121346Z 13005KT 28/11 A3004 RMK A01 T02760110  RH  036%=      5-min Rain = 0
KCO1 121347Z 13006KT 28/11 A3004 RMK A01 T02780110  RH  035%=      5-min Rain = 0
KCO1 121348Z 13006KT 28/11 A3004 RMK A01 T02790108  RH  035%=      5-min Rain = 0
KCO1 121349Z 13006KT 28/11 A3004 RMK A01 T02800110  RH  035%=      5-min Rain = 0
KCO1 121350Z 12006KT 28/11 A3004 RMK A01 T02820109  RH  034%=      5-min Rain = 0
KCO1 121351Z 12007KT 28/11 A3004 RMK A01 T02830110  RH  034%=      5-min Rain = 0
KCO1 121352Z 13008KT 28/11 A3004 RMK A01 T02840107  RH  033%=      5-min Rain = 0
KCO1 121353Z 12007KT 28/11 A3004 RMK A01 T02840107  RH  033%=      5-min Rain = 0
KCO1 121354Z 12007KT 28/11 A3004 RMK A01 T02840109  RH  034%=      5-min Rain = 0
KCO1 121355Z 12007KT 29/11 A3004 RMK A01 T02850109  RH  033%=      5-min Rain = 0
KCO1 121356Z 13006KT 29/11 A3004 RMK A01 T02860109  RH  033%=      5-min Rain = 0
KCO1 121357Z 12006KT 29/11 A3004 RMK A01 T02870110  RH  033%=      5-min Rain = 0
KCO1 121358Z 12006KT 29/11 A3004 RMK A01 T02890111  RH  033%=      5-min Rain = 0
KCO1 121359Z 12007KT 29/11 A3004 RMK A01 T02900110  RH  033%=      5-min Rain = 0
KCO1 121400Z 12006KT 29/11 A3004 RMK A01 T02910109  RH  032%=      5-min Rain = 0
KCO1 121401Z 12005KT 29/11 A3004 RMK A01 T02910111  RH  033%=      5-min Rain = 0
KCO1 121402Z 12005KT 29/11 A3004 RMK A01 T02930111  RH  033%=      5-min Rain = 0
KCO1 121403Z 12006KT 29/11 A3004 RMK A01 T02940110  RH  032%=      5-min Rain = 0
KCO1 121404Z 13006KT 30/11 A3003 RMK A01 T02950109  RH  032%=      5-min Rain = 0
KCO1 121405Z 12005KT 30/11 A3003 RMK A01 T02960110  RH  032%=      5-min Rain = 0
KCO1 121406Z 13006KT 30/11 A3003 RMK A01 T02970110  RH  031%=      5-min Rain = 0
KCO1 121407Z 13006KT 30/11 A3003 RMK A01 T02980110  RH  031%=      5-min Rain = 0
KCO1 121408Z 12006KT 30/11 A3003 RMK A01 T02990110  RH  031%=      5-min Rain = 0
KCO1 121409Z 12007KT 30/11 A3003 RMK A01 T03000109  RH  031%=      5-min Rain = 0
KCO1 121410Z 13007KT 30/11 A3003 RMK A01 T03000109  RH  031%=      5-min Rain = 0
KCO1 121411Z 13006KT 30/11 A3003 RMK A01 T03000108  RH  031%=      5-min Rain = 0
KCO1 121412Z 12006KT 30/11 A3003 RMK A01 T03000109  RH  031%=      5-min Rain = 0
KCO1 121413Z 14006KT 30/11 A3003 RMK A01 T03010111  RH  031%=      5-min Rain = 0
KCO1 121414Z 14006KT 30/11 A3003 RMK A01 T03040109  RH  030%=      5-min Rain = 0
KCO1 121415Z 14006KT 31/11 A3003 RMK A01 T03050110  RH  030%=      5-min Rain = 0
KCO1 121416Z 14008KT 31/11 A3003 RMK A01 T03060110  RH  030%=      5-min Rain = 0
KCO1 121417Z 13007KT 31/11 A3003 RMK A01 T03070106  RH  029%=      5-min Rain = 0
KCO1 121418Z 13005KT 31/11 A3003 RMK A01 T03070108  RH  029%=      5-min Rain = 0
KCO1 121419Z 13006KT 31/11 A3003 RMK A01 T03080107  RH  029%=      5-min Rain = 0
KCO1 121420Z 13007KT 31/11 A3003 RMK A01 T03090106  RH  029%=      5-min Rain = 0
KCO1 121421Z 14007KT 31/10 A3003 RMK A01 T03080104  RH  028%=      5-min Rain = 0
KCO1 121422Z 14007KT 31/11 A3003 RMK A01 T03080105  RH  029%=      5-min Rain = 0
KCO1 121423Z 15007KT 31/10 A3003 RMK A01 T03080104  RH  028%=      5-min Rain = 0
KCO1 121424Z 15007KT 31/10 A3004 RMK A01 T03080104  RH  028%=      5-min Rain = 0
KCO1 121425Z 15007KT 31/10 A3004 RMK A01 T03090104  RH  028%=      5-min Rain = 0
KCO1 121426Z 14006KT 31/10 A3004 RMK A01 T03100104  RH  028%=      5-min Rain = 0
KCO1 121427Z 13006KT 31/11 A3004 RMK A01 T03110106  RH  028%=      5-min Rain = 0
KCO1 121428Z 13007KT 31/11 A3004 RMK A01 T03120105  RH  028%=      5-min Rain = 0
KCO1 121429Z 13006KT 31/11 A3004 RMK A01 T03120105  RH  028%=      5-min Rain = 0
KCO1 121430Z 13007KT 31/10 A3004 RMK A01 T03120103  RH  028%=      5-min Rain = 0
KCO1 121431Z 14007KT 31/10 A3004 RMK A01 T03120104  RH  028%=      5-min Rain = 0
KCO1 121432Z 14007KT 31/10 A3004 RMK A01 T03120100  RH  027%=      5-min Rain = 0
KCO1 121433Z 15007KT 31/10 A3004 RMK A01 T03130101  RH  027%=      5-min Rain = 0
KCO1 121434Z 15008KT 31/10 A3004 RMK A01 T03140101  RH  027%=      5-min Rain = 0
KCO1 121435Z 14008KT 32/10 A3004 RMK A01 T03150099  RH  026%=      5-min Rain = 0
KCO1 121436Z 15007KT 32/10 A3004 RMK A01 T03150099  RH  026%=      5-min Rain = 0
KCO1 121437Z 15008KT 32/10 A3004 RMK A01 T03150099  RH  026%=      5-min Rain = 0
KCO1 121438Z 15008KT 32/10 A3004 RMK A01 T03150100  RH  026%=      5-min Rain = 0
KCO1 121439Z 15008KT 32/10 A3004 RMK A01 T03150099  RH  026%=      5-min Rain = 0
KCO1 121440Z 15006KT 32/10 A3004 RMK A01 T03160100  RH  026%=      5-min Rain = 0
KCO1 121441Z 15007KT 32/10 A3004 RMK A01 T03170102  RH  027%=      5-min Rain = 0
KCO1 121442Z 16005KT 32/10 A3004 RMK A01 T03180101  RH  026%=      5-min Rain = 0
KCO1 121443Z 16006KT 32/10 A3004 RMK A01 T03190104  RH  027%=      5-min Rain = 0
KCO1 121444Z 16005KT 32/10 A3004 RMK A01 T03200104  RH  027%=      5-min Rain = 0
KCO1 121445Z 17005KT 32/11 A3004 RMK A01 T03220106  RH  027%=      5-min Rain = 0
KCO1 121446Z 17007KT 32/10 A3004 RMK A01 T03230103  RH  026%=      5-min Rain = 0
KCO1 121447Z 17006KT 32/10 A3004 RMK A01 T03220104  RH  026%=      5-min Rain = 0
KCO1 121448Z 16006KT 32/11 A3004 RMK A01 T03220105  RH  026%=      5-min Rain = 0
KCO1 121449Z 15007KT 32/11 A3004 RMK A01 T03230105  RH  026%=      5-min Rain = 0
KCO1 121450Z 15007KT 33/10 A3004 RMK A01 T03250102  RH  025%=      5-min Rain = 0
KCO1 121451Z 13007KT 33/10 A3004 RMK A01 T03250102  RH  025%=      5-min Rain = 0
KCO1 121452Z 13007KT 33/11 A3004 RMK A01 T03260105  RH  026%=      5-min Rain = 0
KCO1 121453Z 14007KT 33/10 A3004 RMK A01 T03270104  RH  025%=      5-min Rain = 0
KCO1 121454Z 15007KT 33/10 A3004 RMK A01 T03280103  RH  025%=      5-min Rain = 0
KCO1 121455Z 13006KT 33/11 A3004 RMK A01 T03290105  RH  025%=      5-min Rain = 0
KCO1 121456Z 14007KT 33/10 A3004 RMK A01 T03300103  RH  025%=      5-min Rain = 0
KCO1 121457Z 13007KT 33/10 A3004 RMK A01 T03300104  RH  025%=      5-min Rain = 0
KCO1 121458Z 14007KT 33/11 A3004 RMK A01 T03310105  RH  025%=      5-min Rain = 0
KCO1 121459Z 14007KT 33/10 A3004 RMK A01 T03320104  RH  025%=      5-min Rain = 0
KCO1 121500Z 14008KT 33/10 A3004 RMK A01 T03340101  RH  024%=      5-min Rain = 0
KCO1 121501Z 13007KT 34/10 A3004 RMK A01 T03350100  RH  024%=      5-min Rain = 0
KCO1 121502Z 14007KT 34/10 A3004 RMK A01 T03350101  RH  024%=      5-min Rain = 0
KCO1 121503Z 14007KT 34/10 A3004 RMK A01 T03360103  RH  024%=      5-min Rain = 0
KCO1 121504Z 15007KT 34/10 A3004 RMK A01 T03380100  RH  023%=      5-min Rain = 0
KCO1 121505Z 13006KT 34/10 A3004 RMK A01 T03380101  RH  024%=      5-min Rain = 0
KCO1 121506Z 13007KT 34/10 A3004 RMK A01 T03390101  RH  023%=      5-min Rain = 0
KCO1 121507Z 13007KT 34/10 A3004 RMK A01 T03390100  RH  023%=      5-min Rain = 0
KCO1 121508Z 12007KT 34/10 A3004 RMK A01 T03400100  RH  023%=      5-min Rain = 0
KCO1 121509Z 13007KT 34/10 A3004 RMK A01 T03400100  RH  023%=      5-min Rain = 0
KCO1 121510Z 15006KT 34/10 A3004 RMK A01 T03410103  RH  023%=      5-min Rain = 0
KCO1 121511Z 17007KT 34/10 A3004 RMK A01 T03430098  RH  022%=      5-min Rain = 0
KCO1 121512Z 14007KT 34/10 A3004 RMK A01 T03420097  RH  022%=      5-min Rain = 0
KCO1 121513Z 14007KT 34/10 A3004 RMK A01 T03410099  RH  023%=      5-min Rain = 0
KCO1 121514Z 14007KT 34/10 A3004 RMK A01 T03420100  RH  023%=      5-min Rain = 0
KCO1 121515Z 13006KT 34/10 A3004 RMK A01 T03420098  RH  022%=      5-min Rain = 0
KCO1 121516Z 12006KT 34/10 A3004 RMK A01 T03420099  RH  023%=      5-min Rain = 0
KCO1 121517Z 13008KT 34/10 A3004 RMK A01 T03440098  RH  022%=      5-min Rain = 0
KCO1 121518Z 13007KT 35/10 A3004 RMK A01 T03450097  RH  022%=      5-min Rain = 0
KCO1 121519Z 15005KT 35/10 A3004 RMK A01 T03450097  RH  022%=      5-min Rain = 0
KCO1 121520Z 14004KT 35/10 A3004 RMK A01 T03450099  RH  022%=      5-min Rain = 0
KCO1 121521Z 14006KT 35/10 A3004 RMK A01 T03470100  RH  022%=      5-min Rain = 0
KCO1 121522Z 12007KT 35/10 A3004 RMK A01 T03480100  RH  022%=      5-min Rain = 0
KCO1 121523Z 13006KT 35/10 A3004 RMK A01 T03490098  RH  022%=      5-min Rain = 0
KCO1 121524Z 14007KT 35/10 A3004 RMK A01 T03490100  RH  022%=      5-min Rain = 0
KCO1 121525Z 14008KT 35/10 A3004 RMK A01 T03500096  RH  021%=      5-min Rain = 0
KCO1 121526Z 15006KT 35/10 A3004 RMK A01 T03490096  RH  021%=      5-min Rain = 0
KCO1 121527Z 15006KT 35/10 A3004 RMK A01 T03510099  RH  022%=      5-min Rain = 0
KCO1 121528Z 14008KT 36/10 A3004 RMK A01 T03550098  RH  021%=      5-min Rain = 0
KCO1 121529Z 15007KT 36/09 A3004 RMK A01 T03550092  RH  020%=      5-min Rain = 0
KCO1 121530Z 14005KT 36/10 A3004 RMK A01 T03550095  RH  021%=      5-min Rain = 0
KCO1 121531Z 15005KT 36/10 A3004 RMK A01 T03560095  RH  020%=      5-min Rain = 0
KCO1 121532Z 14007KT 36/10 A3004 RMK A01 T03570095  RH  020%=      5-min Rain = 0
KCO1 121533Z 15007KT 36/10 A3004 RMK A01 T03580096  RH  020%=      5-min Rain = 0
KCO1 121534Z 14007KT 36/10 A3004 RMK A01 T03580096  RH  020%=      5-min Rain = 0
KCO1 121535Z 13007KT 36/09 A3004 RMK A01 T03590093  RH  020%=      5-min Rain = 0
KCO1 121536Z 13005KT 36/09 A3004 RMK A01 T03580091  RH  020%=      5-min Rain = 0
KCO1 121537Z 11004KT 36/09 A3004 RMK A01 T03580094  RH  020%=      5-min Rain = 0
KCO1 121538Z 13006KT 36/10 A3004 RMK A01 T03600095  RH  020%=      5-min Rain = 0
KCO1 121539Z 13005KT 36/09 A3004 RMK A01 T03620092  RH  019%=      5-min Rain = 0
KCO1 121540Z 13007KT 37/09 A3004 RMK A01 T03650093  RH  019%=      5-min Rain = 0
KCO1 121541Z 13007KT 37/09 A3004 RMK A01 T03650091  RH  019%=      5-min Rain = 0
KCO1 121542Z 14007KT 36/09 A3004 RMK A01 T03640090  RH  019%=      5-min Rain = 0
KCO1 121543Z 14006KT 36/09 A3004 RMK A01 T03630088  RH  019%=      5-min Rain = 0
KCO1 121544Z 15006KT 36/09 A3004 RMK A01 T03620089  RH  019%=      5-min Rain = 0
KCO1 121545Z 15008KT 36/09 A3004 RMK A01 T03640085  RH  018%=      5-min Rain = 0
KCO1 121546Z 15007KT 36/09 A3004 RMK A01 T03640085  RH  018%=      5-min Rain = 0
KCO1 121547Z 14007KT 37/08 A3004 RMK A01 T03660084  RH  018%=      5-min Rain = 0
KCO1 121548Z 14007KT 37/08 A3004 RMK A01 T03660084  RH  018%=      5-min Rain = 0
KCO1 121549Z 15007KT 37/09 A3004 RMK A01 T03660087  RH  018%=      5-min Rain = 0
KCO1 121550Z 15009KT 37/08 A3004 RMK A01 T03670084  RH  018%=      5-min Rain = 0
KCO1 121551Z 15008KT 37/09 A3004 RMK A01 T03690086  RH  018%=      5-min Rain = 0
KCO1 121552Z 14006KT 37/09 A3004 RMK A01 T03710089  RH  018%=      5-min Rain = 0
KCO1 121553Z 13006KT 37/09 A3004 RMK A01 T03730086  RH  018%=      5-min Rain = 0
KCO1 121554Z 15005KT 37/09 A3004 RMK A01 T03720088  RH  018%=      5-min Rain = 0
KCO1 121555Z 16006KT 37/09 A3004 RMK A01 T03720085  RH  017%=      5-min Rain = 0
KCO1 121556Z 14006KT 37/09 A3004 RMK A01 T03730088  RH  018%=      5-min Rain = 0
KCO1 121557Z 13006KT 37/09 A3004 RMK A01 T03740085  RH  017%=      5-min Rain = 0
KCO1 121558Z 11005KT 38/08 A3004 RMK A01 T03750084  RH  017%=      5-min Rain = 0
KCO1 121559Z 17005KT 38/09 A3004 RMK A01 T03760088  RH  017%=      5-min Rain = 0
KCO1 121600Z 16006KT 38/09 A3004 RMK A01 T03770087  RH  017%=      5-min Rain = 0
KCO1 121601Z 14007KT 38/09 A3004 RMK A01 T03760086  RH  017%=      5-min Rain = 0
KCO1 121602Z 13007KT 38/09 A3004 RMK A01 T03750085  RH  017%=      5-min Rain = 0
KCO1 121603Z 14005KT 37/08 A3004 RMK A01 T03740082  RH  017%=      5-min Rain = 0
KCO1 121604Z 14005KT 37/08 A3004 RMK A01 T03730083  RH  017%=      5-min Rain = 0
KCO1 121605Z 11007KT 37/08 A3004 RMK A01 T03730082  RH  017%=      5-min Rain = 0
KCO1 121606Z 13007KT 37/08 A3004 RMK A01 T03740081  RH  017%=      5-min Rain = 0
KCO1 121607Z 12007KT 38/08 A3004 RMK A01 T03750080  RH  017%=      5-min Rain = 0
KCO1 121608Z 12007KT 38/08 A3004 RMK A01 T03750082  RH  017%=      5-min Rain = 0
KCO1 121609Z 14005KT 38/08 A3004 RMK A01 T03770083  RH  017%=      5-min Rain = 0
KCO1 121610Z 13008KT 38/08 A3004 RMK A01 T03780084  RH  017%=      5-min Rain = 0
KCO1 121611Z 14011KT 38/08 A3004 RMK A01 T03810081  RH  016%=      5-min Rain = 0
KCO1 121612Z 13008KT 38/08 A3004 RMK A01 T03800078  RH  016%=      5-min Rain = 0
KCO1 121613Z 16006KT 38/08 A3004 RMK A01 T03780080  RH  016%=      5-min Rain = 0
KCO1 121614Z 15005KT 38/08 A3004 RMK A01 T03770081  RH  016%=      5-min Rain = 0
KCO1 121615Z 10004KT 38/08 A3004 RMK A01 T03780081  RH  016%=      5-min Rain = 0
KCO1 121616Z 12005G10KT 38/08 A3004 RMK A01 T03790075  RH  016%=      5-min Rain = 0
KCO1 121617Z 12008KT 38/08 A3004 RMK A01 T03800079  RH  016%=      5-min Rain = 0
KCO1 121618Z 15008KT 38/08 A3004 RMK A01 T03790075  RH  016%=      5-min Rain = 0
KCO1 121619Z 15010KT 38/07 A3004 RMK A01 T03790074  RH  016%=      5-min Rain = 0
KCO1 121620Z 17008KT 38/08 A3004 RMK A01 T03780076  RH  016%=      5-min Rain = 0
KCO1 121621Z 16007KT 38/08 A3004 RMK A01 T03790077  RH  016%=      5-min Rain = 0
KCO1 121622Z 15007KT 38/08 A3004 RMK A01 T03790077  RH  016%=      5-min Rain = 0
KCO1 121623Z 13007KT 38/08 A3004 RMK A01 T03790080  RH  016%=      5-min Rain = 0
KCO1 121624Z 13009KT 38/08 A3004 RMK A01 T03820081  RH  016%=      5-min Rain = 0
KCO1 121625Z 15009KT 38/08 A3004 RMK A01 T03830079  RH  016%=      5-min Rain = 0
KCO1 121626Z 15007KT 38/08 A3004 RMK A01 T03820078  RH  016%=      5-min Rain = 0
KCO1 121627Z 15006KT 38/08 A3004 RMK A01 T03800079  RH  016%=      5-min Rain = 0
KCO1 121628Z 14008KT 38/08 A3004 RMK A01 T03800079  RH  016%=      5-min Rain = 0
KCO1 121629Z 11007KT 38/08 A3004 RMK A01 T03800078  RH  016%=      5-min Rain = 0
KCO1 121630Z 14011KT 38/08 A3004 RMK A01 T03810081  RH  016%=      5-min Rain = 0
KCO1 121631Z 13008KT 38/08 A3004 RMK A01 T03830078  RH  016%=      5-min Rain = 0
KCO1 121632Z 12008KT 38/08 A3004 RMK A01 T03830078  RH  016%=      5-min Rain = 0
KCO1 121633Z 12005KT 38/08 A3004 RMK A01 T03830075  RH  015%=      5-min Rain = 0
KCO1 121634Z 12007G12KT 38/08 A3004 RMK A01 T03820076  RH  016%=      5-min Rain = 0
KCO1 121635Z 13011KT 38/07 A3004 RMK A01 T03820073  RH  015%=      5-min Rain = 0
KCO1 121636Z 11011KT 38/07 A3004 RMK A01 T03830070  RH  015%=      5-min Rain = 0
KCO1 121637Z 11009G14KT 38/07 A3004 RMK A01 T03840071  RH  015%=      5-min Rain = 0
KCO1 121638Z 12013KT 39/07 A3004 RMK A01 T03850067  RH  014%=      5-min Rain = 0
KCO1 121639Z 11012KT 38/07 A3004 RMK A01 T03840067  RH  014%=      5-min Rain = 0
KCO1 121640Z 12009KT 38/07 A3004 RMK A01 T03830068  RH  015%=      5-min Rain = 0
KCO1 121641Z 13006KT 38/07 A3004 RMK A01 T03840072  RH  015%=      5-min Rain = 0
KCO1 121642Z 13010KT 39/07 A3004 RMK A01 T03870072  RH  015%=      5-min Rain = 0
KCO1 121643Z 14008KT 39/07 A3004 RMK A01 T03870070  RH  015%=      5-min Rain = 0
KCO1 121644Z 15007KT 39/07 A3004 RMK A01 T03850069  RH  015%=      5-min Rain = 0
KCO1 121645Z 15009KT 38/07 A3004 RMK A01 T03840069  RH  015%=      5-min Rain = 0
KCO1 121646Z 13006KT 38/07 A3004 RMK A01 T03830071  RH  015%=      5-min Rain = 0
KCO1 121647Z 12010G16KT 38/08 A3004 RMK A01 T03840076  RH  015%=      5-min Rain = 0
KCO1 121648Z 13013KT 39/07 A3004 RMK A01 T03870071  RH  015%=      5-min Rain = 0
KCO1 121649Z 13009KT 39/07 A3004 RMK A01 T03850070  RH  015%=      5-min Rain = 0
KCO1 121650Z 13006KT 38/07 A3004 RMK A01 T03830067  RH  015%=      5-min Rain = 0
KCO1 121651Z 13006KT 38/07 A3004 RMK A01 T03810070  RH  015%=      5-min Rain = 0
KCO1 121652Z 12010KT 38/08 A3004 RMK A01 T03830076  RH  016%=      5-min Rain = 0
KCO1 121653Z 10009KT 39/08 A3004 RMK A01 T03850078  RH  016%=      5-min Rain = 0
KCO1 121654Z 10010KT 39/08 A3004 RMK A01 T03890078  RH  015%=      5-min Rain = 0
KCO1 121655Z 10011KT 39/08 A3004 RMK A01 T03900075  RH  015%=      5-min Rain = 0
KCO1 121656Z 12008KT 39/08 A3004 RMK A01 T03880076  RH  015%=      5-min Rain = 0
KCO1 121657Z 13009KT 39/08 A3004 RMK A01 T03880078  RH  015%=      5-min Rain = 0
KCO1 121658Z 12011KT 39/08 A3004 RMK A01 T03880078  RH  015%=      5-min Rain = 0
KCO1 121659Z 11008KT 39/08 A3004 RMK A01 T03850076  RH  015%=      5-min Rain = 0
KCO1 121700Z 12009KT 38/08 A3004 RMK A01 T03840076  RH  015%=      5-min Rain = 0
KCO1 121701Z 12008KT 38/08 A3003 RMK A01 T03830077  RH  016%=      5-min Rain = 0
KCO1 121702Z 10009KT 38/08 A3003 RMK A01 T03820078  RH  016%=      5-min Rain = 0
KCO1 121703Z 10009KT 38/08 A3003 RMK A01 T03820076  RH  016%=      5-min Rain = 0
KCO1 121704Z 12011KT 38/08 A3003 RMK A01 T03830076  RH  015%=      5-min Rain = 0
KCO1 121705Z 11011KT 39/07 A3003 RMK A01 T03850074  RH  015%=      5-min Rain = 0
KCO1 121706Z 10012KT 39/07 A3003 RMK A01 T03880071  RH  015%=      5-min Rain = 0
KCO1 121707Z 10010KT 39/07 A3003 RMK A01 T03870068  RH  014%=      5-min Rain = 0
KCO1 121708Z 12008KT 39/07 A3003 RMK A01 T03860068  RH  014%=      5-min Rain = 0
KCO1 121709Z 12007KT 39/07 A3003 RMK A01 T03850070  RH  015%=      5-min Rain = 0
KCO1 121710Z 11012KT 39/07 A3003 RMK A01 T03860067  RH  014%=      5-min Rain = 0
KCO1 121711Z 13012KT 39/07 A3003 RMK A01 T03880065  RH  014%=      5-min Rain = 0
KCO1 121712Z 13009KT 39/06 A3003 RMK A01 T03890064  RH  014%=      5-min Rain = 0
KCO1 121713Z 13010KT 39/06 A3003 RMK A01 T03890061  RH  014%=      5-min Rain = 0
KCO1 121714Z 12006KT 39/06 A3003 RMK A01 T03890061  RH  014%=      5-min Rain = 0
KCO1 121715Z 12009G14KT 39/06 A3003 RMK A01 T03890060  RH  013%=      5-min Rain = 0
KCO1 121716Z 11011KT 39/06 A3003 RMK A01 T03910058  RH  013%=      5-min Rain = 0
KCO1 121717Z 12014G19KT 39/05 A3003 RMK A01 T03930049  RH  012%=      5-min Rain = 0
KCO1 121718Z 12013KT 39/04 A3003 RMK A01 T03920040  RH  012%=      5-min Rain = 0
KCO1 121719Z 12011KT 39/05 A3003 RMK A01 T03890049  RH  012%=      5-min Rain = 0
KCO1 121720Z 12012KT 39/05 A3003 RMK A01 T03900050  RH  012%=      5-min Rain = 0
KCO1 121721Z 12011KT 39/06 A3003 RMK A01 T03900058  RH  013%=      5-min Rain = 0
KCO1 121722Z 12010KT 39/06 A3003 RMK A01 T03920060  RH  013%=      5-min Rain = 0
KCO1 121723Z 14010KT 39/06 A3002 RMK A01 T03930060  RH  013%=      5-min Rain = 0
KCO1 121724Z 15012KT 39/06 A3002 RMK A01 T03940064  RH  013%=      5-min Rain = 0
KCO1 121725Z 14010KT 40/07 A3002 RMK A01 T03960065  RH  013%=      5-min Rain = 0
KCO1 121726Z 14013KT 40/06 A3002 RMK A01 T03950064  RH  013%=      5-min Rain = 0
KCO1 121727Z 12010KT 40/07 A3002 RMK A01 T03950067  RH  014%=      5-min Rain = 0
KCO1 121728Z 14009KT 40/06 A3002 RMK A01 T03950063  RH  013%=      5-min Rain = 0
KCO1 121729Z 12010G16KT 40/06 A3002 RMK A01 T03960061  RH  013%=      5-min Rain = 0
KCO1 121730Z 11010KT 40/06 A3002 RMK A01 T03960062  RH  013%=      5-min Rain = 0
KCO1 121731Z 11010KT 40/06 A3002 RMK A01 T03960062  RH  013%=      5-min Rain = 0
KCO1 121732Z 12013KT 40/06 A3002 RMK A01 T03950060  RH  013%=      5-min Rain = 0
KCO1 121733Z 12012KT 40/06 A3002 RMK A01 T03950061  RH  013%=      5-min Rain = 0
KCO1 121734Z 15009KT 40/06 A3002 RMK A01 T03970058  RH  013%=      5-min Rain = 0
KCO1 121735Z 13011KT 40/06 A3002 RMK A01 T03970056  RH  013%=      5-min Rain = 0
KCO1 121736Z 12012KT 40/05 A3002 RMK A01 T04000048  RH  012%=      5-min Rain = 0
KCO1 121737Z 12013KT 40/04 A3002 RMK A01 T04000044  RH  011%=      5-min Rain = 0
KCO1 121738Z 14011G16KT 40/03 A3002 RMK A01 T03990030  RH  010%=      5-min Rain = 0
KCO1 121739Z 14012KT 40/03 A3002 RMK A01 T03990026  RH  010%=      5-min Rain = 0
KCO1 121740Z 14009G14KT 40/03 A3002 RMK A01 T04000028  RH  010%=      5-min Rain = 0
KCO1 121741Z 15011KT 40/04 A3002 RMK A01 T04020036  RH  011%=      5-min Rain = 0
KCO1 121742Z 14012KT 41/03 A3002 RMK A01 T04070034  RH  010%=      5-min Rain = 0
KCO1 121743Z 15013KT 41/04 A3002 RMK A01 T04070035  RH  010%=      5-min Rain = 0
KCO1 121744Z 14015KT 41/03 A3001 RMK A01 T04050032  RH  010%=      5-min Rain = 0
KCO1 121745Z 12012KT 40/03 A3001 RMK A01 T04020033  RH  010%=      5-min Rain = 0
KCO1 121746Z 15011G19KT 40/03 A3001 RMK A01 T04020029  RH  010%=      5-min Rain = 0
KCO1 121747Z 15016KT 40/03 A3001 RMK A01 T04020029  RH  010%=      5-min Rain = 0
KCO1 121748Z 15015KT 40/03 A3001 RMK A01 T04010028  RH  010%=      5-min Rain = 0
KCO1 121749Z 14014KT 40/03 A3001 RMK A01 T04000028  RH  010%=      5-min Rain = 0
KCO1 121750Z 15012KT 40/03 A3001 RMK A01 T04000029  RH  010%=      5-min Rain = 0
KCO1 121751Z 15011KT 40/03 A3001 RMK A01 T04000031  RH  010%=      5-min Rain = 0
KCO1 121752Z 15010KT 40/03 A3001 RMK A01 T04000032  RH  010%=      5-min Rain = 0
KCO1 121753Z 15009KT 40/03 A3001 RMK A01 T04010031  RH  010%=      5-min Rain = 0
KCO1 121754Z 13008KT 40/03 A3001 RMK A01 T04010032  RH  010%=      5-min Rain = 0
KCO1 121755Z 12008KT 40/04 A3001 RMK A01 T04010036  RH  011%=      5-min Rain = 0
KCO1 121756Z 13012KT 40/04 A3001 RMK A01 T04020037  RH  011%=      5-min Rain = 0
KCO1 121757Z 13015KT 41/03 A3001 RMK A01 T04060031  RH  010%=      5-min Rain = 0
KCO1 121758Z 12012KT 41/03 A3001 RMK A01 T04060028  RH  010%=      5-min Rain = 0
KCO1 121759Z 13010KT 41/03 A3001 RMK A01 T04080030  RH  010%=      5-min Rain = 0
KCO1 121800Z 13012KT 41/03 A3001 RMK A01 T04090031  RH  010%=      5-min Rain = 0
KCO1 121801Z 14012KT 41/03 A3001 RMK A01 T04090029  RH  010%=      5-min Rain = 0
KCO1 121802Z 15012KT 41/03 A3001 RMK A01 T04090033  RH  010%=      5-min Rain = 0
KCO1 121803Z 14011KT 41/03 A3001 RMK A01 T04090032  RH  010%=      5-min Rain = 0
KCO1 121804Z 14010KT 41/04 A30 RMK A01 T04090038  RH  010%=      5-min Rain = 0
KCO1 121805Z 15010G18KT 41/03 A30 RMK A01 T04110032  RH  010%=      5-min Rain = 0
KCO1 121806Z 14015KT 41/02 A30 RMK A01 T04110024  RH  009%=      5-min Rain = 0
KCO1 121807Z 14010G15KT 41/02 A30 RMK A01 T04070017  RH  009%=      5-min Rain = 0
KCO1 121808Z 14014G20KT 41/02 A30 RMK A01 T04060020  RH  009%=      5-min Rain = 0
KCO1 121809Z 14015G20KT 41/02 A30 RMK A01 T04060024  RH  010%=      5-min Rain = 0
KCO1 121810Z 13011KT 41/02 A30 RMK A01 T04050021  RH  009%=      5-min Rain = 0
KCO1 121811Z 14012KT 41/02 A30 RMK A01 T04050021  RH  009%=      5-min Rain = 0
KCO1 121812Z 13013KT 41/02 A30 RMK A01 T04080018  RH  009%=      5-min Rain = 0
KCO1 121813Z 13010KT 41/01 A30 RMK A01 T04080014  RH  009%=      5-min Rain = 0
KCO1 121814Z 13010KT 41/02 A30 RMK A01 T04080023  RH  009%=      5-min Rain = 0
KCO1 121815Z 14011KT 41/02 A30 RMK A01 T04100022  RH  009%=      5-min Rain = 0
KCO1 121816Z 12012KT 41/03 A30 RMK A01 T04090025  RH  009%=      5-min Rain = 0
KCO1 121817Z 12008KT 41/03 A30 RMK A01 T04070027  RH  010%=      5-min Rain = 0
KCO1 121818Z 15010KT 41/03 A30 RMK A01 T04080028  RH  010%=      5-min Rain = 0
KCO1 121819Z 13011KT 41/03 A30 RMK A01 T04110028  RH  010%=      5-min Rain = 0
KCO1 121820Z 14012KT 41/03 A30 RMK A01 T04140025  RH  009%=      5-min Rain = 0
KCO1 121821Z 14013KT 41/03 A30 RMK A01 T04140026  RH  009%=      5-min Rain = 0
KCO1 121822Z 13012G17KT 41/03 A30 RMK A01 T04110030  RH  010%=      5-min Rain = 0
KCO1 121823Z 12014KT 41/03 A30 RMK A01 T04100033  RH  010%=      5-min Rain = 0
KCO1 121824Z 13011KT 41/03 A30 RMK A01 T04080032  RH  010%=      5-min Rain = 0
KCO1 121825Z 12013KT 41/03 A30 RMK A01 T04070032  RH  010%=      5-min Rain = 0
KCO1 121826Z 14016KT 41/02 A30 RMK A01 T04100019  RH  009%=      5-min Rain = 0
KCO1 121827Z 14011KT 41/02 A30 RMK A01 T04110017  RH  009%=      5-min Rain = 0
KCO1 121828Z 14008KT 41/02 A30 RMK A01 T04110019  RH  009%=      5-min Rain = 0
KCO1 121829Z 13008KT 41/02 A2999 RMK A01 T04100015  RH  009%=      5-min Rain = 0
KCO1 121830Z 13010KT 41/01 A2999 RMK A01 T04100013  RH  009%=      5-min Rain = 0
KCO1 121831Z 13015KT 41/01 A2999 RMK A01 T04110006  RH  008%=      5-min Rain = 0
KCO1 121832Z 15009KT 41/00 A2999 RMK A01 T04100004  RH  008%=      5-min Rain = 0
KCO1 121833Z 14012G19KT 41/01 A2999 RMK A01 T04090010  RH  008%=      5-min Rain = 0
KCO1 121834Z 14019KT 41/02 A2999 RMK A01 T04110015  RH  009%=      5-min Rain = 0
KCO1 121835Z 14016KT 41/01 A2999 RMK A01 T04110013  RH  009%=      5-min Rain = 0
KCO1 121836Z 13014KT 41/01 A2999 RMK A01 T04120011  RH  008%=      5-min Rain = 0
KCO1 121837Z 12014KT 41/01 A2999 RMK A01 T04110010  RH  008%=      5-min Rain = 0
KCO1 121838Z 11011KT 41/01 A2999 RMK A01 T04110008  RH  008%=      5-min Rain = 0
KCO1 121839Z 12013KT 41/01 A2999 RMK A01 T04120007  RH  008%=      5-min Rain = 0
KCO1 121840Z 14014KT 41/01 A2999 RMK A01 T04130007  RH  008%=      5-min Rain = 0
KCO1 121841Z 15011KT 41/00 A2999 RMK A01 T04130004  RH  008%=      5-min Rain = 0
KCO1 121842Z 14006KT 41/00 A2999 RMK A01 T04100002  RH  008%=      5-min Rain = 0
KCO1 121843Z 15010KT 41/01 A2999 RMK A01 T04090010  RH  008%=      5-min Rain = 0
KCO1 121844Z 16010KT 41/01 A2999 RMK A01 T04130010  RH  008%=      5-min Rain = 0
KCO1 121845Z 15009KT 41/01 A2999 RMK A01 T04140007  RH  008%=      5-min Rain = 0
KCO1 121846Z 14007KT 41/01 A2999 RMK A01 T04100010  RH  008%=      5-min Rain = 0
KCO1 121847Z 16007KT 41/01 A2998 RMK A01 T04100011  RH  008%=      5-min Rain = 0
KCO1 121848Z 14014KT 41/01 A2998 RMK A01 T04100009  RH  008%=      5-min Rain = 0
KCO1 121849Z 13016KT 41/01 A2998 RMK A01 T04100005  RH  008%=      5-min Rain = 0
KCO1 121850Z 14014KT 41/00 A2998 RMK A01 T04110003  RH  008%=      5-min Rain = 0
KCO1 121851Z 14015KT 41/M00 A2998 RMK A01 T04141004  RH  007%=      5-min Rain = 0
KCO1 121852Z 15014KT 42/M01 A2998 RMK A01 T04151007  RH  007%=      5-min Rain = 0
KCO1 121853Z 15013KT 42/M01 A2998 RMK A01 T04151012  RH  007%=      5-min Rain = 0
KCO1 121854Z 15012KT 41/M01 A2998 RMK A01 T04141009  RH  007%=      5-min Rain = 0
KCO1 121855Z 16011KT 41/M01 A2998 RMK A01 T04131009  RH  007%=      5-min Rain = 0
KCO1 121856Z 16012KT 41/M01 A2998 RMK A01 T04131007  RH  007%=      5-min Rain = 0
KCO1 121857Z 18008KT 41/M01 A2998 RMK A01 T04131009  RH  007%=      5-min Rain = 0
KCO1 121858Z 16005KT 41/M01 A2998 RMK A01 T04091007  RH  008%=      5-min Rain = 0
KCO1 121859Z 13009G14KT 41/M01 A2998 RMK A01 T04081005  RH  008%=      5-min Rain = 0
KCO1 121900Z 13008G13KT 41/M01 A2998 RMK A01 T04091005  RH  008%=      5-min Rain = 0
KCO1 121901Z 13007KT 41/M00 A2997 RMK A01 T04111002  RH  008%=      5-min Rain = 0
KCO1 121902Z 12010KT 41/M00 A2997 RMK A01 T04131004  RH  008%=      5-min Rain = 0
KCO1 121903Z 16015KT 41/M00 A2997 RMK A01 T04141002  RH  008%=      5-min Rain = 0
KCO1 121904Z 15015KT 42/M00 A2997 RMK A01 T04151002  RH  008%=      5-min Rain = 0
KCO1 121905Z 17011KT 42/00 A2997 RMK A01 T04150004  RH  008%=      5-min Rain = 0
KCO1 121906Z 18010KT 42/M01 A2997 RMK A01 T04161008  RH  007%=      5-min Rain = 0
KCO1 121907Z 18012KT 42/M01 A2997 RMK A01 T04151005  RH  007%=      5-min Rain = 0
KCO1 121908Z 17012KT 42/M01 A2997 RMK A01 T04161007  RH  007%=      5-min Rain = 0
KCO1 121909Z 18011KT 42/M01 A2997 RMK A01 T04161005  RH  007%=      5-min Rain = 0
KCO1 121910Z 17012KT 42/M01 A2997 RMK A01 T04171008  RH  007%=      5-min Rain = 0
KCO1 121911Z 17014KT 42/M00 A2997 RMK A01 T04181004  RH  007%=      5-min Rain = 0
KCO1 121912Z 16013KT 42/M01 A2997 RMK A01 T04191011  RH  007%=      5-min Rain = 0
KCO1 121913Z 16012KT 42/M01 A2997 RMK A01 T04161013  RH  007%=      5-min Rain = 0
KCO1 121914Z 14012KT 42/M01 A2997 RMK A01 T04151012  RH  007%=      5-min Rain = 0
KCO1 121915Z 14011KT 42/M01 A2997 RMK A01 T04161011  RH  007%=      5-min Rain = 0
KCO1 121916Z 15008KT 42/M01 A2996 RMK A01 T04151009  RH  007%=      5-min Rain = 0
KCO1 121917Z 20010KT 42/M01 A2996 RMK A01 T04171005  RH  007%=      5-min Rain = 0
KCO1 121918Z 20010KT 42/M01 A2996 RMK A01 T04181010  RH  007%=      5-min Rain = 0
KCO1 121919Z 18007KT 42/M01 A2996 RMK A01 T04171013  RH  007%=      5-min Rain = 0
KCO1 121920Z 15011KT 41/M01 A2996 RMK A01 T04141008  RH  007%=      5-min Rain = 0
KCO1 121921Z 15014KT 42/M02 A2996 RMK A01 T04171018  RH  007%=      5-min Rain = 0
KCO1 121922Z 14013KT 42/M02 A2996 RMK A01 T04161021  RH  007%=      5-min Rain = 0
KCO1 121923Z 15011KT 42/M02 A2997 RMK A01 T04151019  RH  007%=      5-min Rain = 0
KCO1 121924Z 17006KT 41/M02 A2996 RMK A01 T04141019  RH  007%=      5-min Rain = 0
KCO1 121925Z 12010KT 42/M01 A2996 RMK A01 T04151014  RH  007%=      5-min Rain = 0
KCO1 121926Z 11011KT 42/M02 A2996 RMK A01 T04171015  RH  007%=      5-min Rain = 0
KCO1 121927Z 12012KT 42/M02 A2996 RMK A01 T04181016  RH  007%=      5-min Rain = 0
KCO1 121928Z 12011KT 42/M02 A2996 RMK A01 T04181015  RH  007%=      5-min Rain = 0
KCO1 121929Z 14010KT 42/M02 A2996 RMK A01 T04161017  RH  007%=      5-min Rain = 0
KCO1 121930Z 15009KT 41/M01 A2996 RMK A01 T04141013  RH  007%=      5-min Rain = 0
KCO1 121931Z 18010KT 42/M01 A2996 RMK A01 T04181011  RH  007%=      5-min Rain = 0
KCO1 121932Z 17011G18KT 42/M02 A2996 RMK A01 T04181015  RH  007%=      5-min Rain = 0
KCO1 121933Z 13014KT 42/M01 A2996 RMK A01 T04161013  RH  007%=      5-min Rain = 0
KCO1 121934Z 14012KT 42/M01 A2996 RMK A01 T04201011  RH  007%=      5-min Rain = 0
KCO1 121935Z 15010KT 42/M02 A2996 RMK A01 T04211018  RH  006%=      5-min Rain = 0
KCO1 121936Z 15007KT 42/M02 A2996 RMK A01 T04171015  RH  007%=      5-min Rain = 0
KCO1 121937Z 13008KT 42/M02 A2996 RMK A01 T04181017  RH  007%=      5-min Rain = 0
KCO1 121938Z 15007KT 42/M01 A2996 RMK A01 T04171014  RH  007%=      5-min Rain = 0
KCO1 121939Z 13007KT 42/M02 A2996 RMK A01 T04181015  RH  007%=      5-min Rain = 0
KCO1 121940Z 12008KT 42/M01 A2996 RMK A01 T04181012  RH  007%=      5-min Rain = 0
KCO1 121941Z 13008KT 42/M01 A2996 RMK A01 T04191011  RH  007%=      5-min Rain = 0
KCO1 121942Z 12010KT 42/M01 A2996 RMK A01 T04221010  RH  007%=      5-min Rain = 0
KCO1 121943Z 12011KT 42/M01 A2996 RMK A01 T04231012  RH  007%=      5-min Rain = 0
KCO1 121944Z 11012KT 42/M02 A2996 RMK A01 T04221018  RH  006%=      5-min Rain = 0
KCO1 121945Z 13013KT 42/M01 A2996 RMK A01 T04231012  RH  007%=      5-min Rain = 0
KCO1 121946Z 13011KT 42/M01 A2996 RMK A01 T04241014  RH  007%=      5-min Rain = 0
KCO1 121947Z 14008KT 42/M01 A2995 RMK A01 T04221014  RH  007%=      5-min Rain = 0
KCO1 121948Z 12006KT 42/M01 A2995 RMK A01 T04221011  RH  007%=      5-min Rain = 0
KCO1 121949Z 13012KT 42/M01 A2996 RMK A01 T04241010  RH  007%=      5-min Rain = 0
KCO1 121950Z 16012KT 42/M02 A2995 RMK A01 T04231019  RH  006%=      5-min Rain = 0
KCO1 121951Z 13007KT 42/M02 A2995 RMK A01 T04171021  RH  006%=      5-min Rain = 0
KCO1 121952Z 11008G14KT 42/M02 A2995 RMK A01 T04161017  RH  007%=      5-min Rain = 0
KCO1 121953Z 12013KT 42/M02 A2995 RMK A01 T04191016  RH  007%=      5-min Rain = 0
KCO1 121954Z 11009KT 42/M02 A2995 RMK A01 T04191018  RH  007%=      5-min Rain = 0
KCO1 121955Z 11008KT 42/M02 A2995 RMK A01 T04171019  RH  007%=      5-min Rain = 0
KCO1 121956Z 11010KT 42/M02 A2995 RMK A01 T04161017  RH  007%=      5-min Rain = 0
KCO1 121957Z 14014G19KT 42/M01 A2995 RMK A01 T04191012  RH  007%=      5-min Rain = 0
KCO1 121958Z 15011G16KT 42/M01 A2995 RMK A01 T04231009  RH  007%=      5-min Rain = 0
KCO1 121959Z 15013KT 42/M02 A2995 RMK A01 T04241016  RH  006%=      5-min Rain = 0
KCO1 122000Z 16011KT 42/M02 A2995 RMK A01 T04211018  RH  006%=      5-min Rain = 0
KCO1 122001Z 18011G16KT 42/M02 A2995 RMK A01 T04181019  RH  007%=      5-min Rain = 0
KCO1 122002Z 17006KT 42/M02 A2995 RMK A01 T04161021  RH  007%=      5-min Rain = 0
KCO1 122003Z 16008G15KT 42/M02 A2995 RMK A01 T04161018  RH  007%=      5-min Rain = 0
KCO1 122004Z 13013KT 42/M02 A2995 RMK A01 T04191015  RH  007%=      5-min Rain = 0
KCO1 122005Z 12014KT 42/M02 A2995 RMK A01 T04211020  RH  006%=      5-min Rain = 0
KCO1 122006Z 11010KT 42/M02 A2995 RMK A01 T04201023  RH  006%=      5-min Rain = 0
KCO1 122007Z 13005G11KT 42/M02 A2995 RMK A01 T04151022  RH  006%=      5-min Rain = 0
KCO1 122008Z 15009KT 42/M02 A2995 RMK A01 T04161019  RH  007%=      5-min Rain = 0
KCO1 122009Z 14009G14KT 42/M02 A2995 RMK A01 T04181017  RH  007%=      5-min Rain = 0
KCO1 122010Z 12011KT 42/M02 A2995 RMK A01 T04211015  RH  007%=      5-min Rain = 0
KCO1 122011Z 12009KT 42/M02 A2995 RMK A01 T04221015  RH  007%=      5-min Rain = 0
KCO1 122012Z 11007KT 42/M02 A2994 RMK A01 T04211021  RH  006%=      5-min Rain = 0
KCO1 122013Z 17011KT 42/M02 A2994 RMK A01 T04191017  RH  007%=      5-min Rain = 0
KCO1 122014Z 17008KT 42/M02 A2994 RMK A01 T04181021  RH  006%=      5-min Rain = 0
KCO1 122015Z 17006KT 42/M02 A2994 RMK A01 T04161015  RH  007%=      5-min Rain = 0
KCO1 122016Z 15007KT 42/M02 A2994 RMK A01 T04191015  RH  007%=      5-min Rain = 0
KCO1 122017Z 14011KT 42/M02 A2994 RMK A01 T04211017  RH  007%=      5-min Rain = 0
KCO1 122018Z 15010KT 42/M02 A2994 RMK A01 T04221016  RH  007%=      5-min Rain = 0
KCO1 122019Z 17010KT 42/M02 A2994 RMK A01 T04221015  RH  007%=      5-min Rain = 0
KCO1 122020Z 17011KT 42/M01 A2994 RMK A01 T04211009  RH  007%=      5-min Rain = 0
KCO1 122021Z 17011KT 42/M01 A2994 RMK A01 T04211011  RH  007%=      5-min Rain = 0
KCO1 122022Z 19008KT 42/M01 A2994 RMK A01 T04221005  RH  007%=      5-min Rain = 0
KCO1 122023Z 18008KT 42/M01 A2994 RMK A01 T04231013  RH  007%=      5-min Rain = 0
KCO1 122024Z 16007KT 42/M01 A2994 RMK A01 T04221010  RH  007%=      5-min Rain = 0
KCO1 122025Z 17007KT 42/M01 A2994 RMK A01 T04211009  RH  007%=      5-min Rain = 0
KCO1 122026Z 16012KT 42/M01 A2994 RMK A01 T04231005  RH  007%=      5-min Rain = 0
KCO1 122027Z 16014KT 42/M01 A2994 RMK A01 T04211012  RH  007%=      5-min Rain = 0
KCO1 122028Z 15014KT 42/M01 A2994 RMK A01 T04191011  RH  007%=      5-min Rain = 0
KCO1 122029Z 16011KT 42/M01 A2994 RMK A01 T04191008  RH  007%=      5-min Rain = 0
KCO1 122030Z 14008KT 42/M01 A2994 RMK A01 T04211011  RH  007%=      5-min Rain = 0
KCO1 122031Z 15008KT 42/M01 A2994 RMK A01 T04191011  RH  007%=      5-min Rain = 0
KCO1 122032Z 12008KT 42/M01 A2994 RMK A01 T04181007  RH  007%=      5-min Rain = 0
KCO1 122033Z 11009KT 42/M01 A2994 RMK A01 T04211006  RH  007%=      5-min Rain = 0
KCO1 122034Z 14011KT 42/M01 A2994 RMK A01 T04241005  RH  007%=      5-min Rain = 0
KCO1 122035Z 13010KT 42/M01 A2994 RMK A01 T04231013  RH  007%=      5-min Rain = 0
KCO1 122036Z 12006G11KT 42/M01 A2994 RMK A01 T04191011  RH  007%=      5-min Rain = 0
KCO1 122037Z 12007KT 42/M01 A2994 RMK A01 T04171013  RH  007%=      5-min Rain = 0
KCO1 122038Z 11006KT 42/M01 A2994 RMK A01 T04151011  RH  007%=      5-min Rain = 0
KCO1 122039Z 10007KT 42/M02 A2993 RMK A01 T04171015  RH  007%=      5-min Rain = 0
KCO1 122040Z 13008KT 42/M01 A2993 RMK A01 T04161011  RH  007%=      5-min Rain = 0
KCO1 122041Z 12012KT 42/M01 A2993 RMK A01 T04181009  RH  007%=      5-min Rain = 0
KCO1 122042Z 13013G19KT 42/M01 A2993 RMK A01 T04201009  RH  007%=      5-min Rain = 0
KCO1 122043Z 13011KT 42/M01 A2993 RMK A01 T04201007  RH  007%=      5-min Rain = 0
KCO1 122044Z 12008KT 42/M01 A2993 RMK A01 T04211008  RH  007%=      5-min Rain = 0
KCO1 122045Z 13007KT 42/M01 A2993 RMK A01 T04191007  RH  007%=      5-min Rain = 0
KCO1 122046Z 14007KT 42/M01 A2993 RMK A01 T04201006  RH  007%=      5-min Rain = 0
KCO1 122047Z 16009KT 42/M01 A2993 RMK A01 T04201005  RH  007%=      5-min Rain = 0
KCO1 122048Z 18009KT 42/00 A2993 RMK A01 T04220004  RH  008%=      5-min Rain = 0
KCO1 122049Z 17010KT 43/00 A2993 RMK A01 T04250001  RH  007%=      5-min Rain = 0
KCO1 122050Z 14006KT 43/M01 A2993 RMK A01 T04271005  RH  007%=      5-min Rain = 0
KCO1 122051Z 16005KT 43/M01 A2993 RMK A01 T04251006  RH  007%=      5-min Rain = 0
KCO1 122052Z 15006KT 42/M01 A2993 RMK A01 T04241005  RH  007%=      5-min Rain = 0
KCO1 122053Z 15011KT 42/M00 A2993 RMK A01 T04241003  RH  007%=      5-min Rain = 0
KCO1 122054Z 15013KT 42/M01 A2993 RMK A01 T04241008  RH  007%=      5-min Rain = 0
KCO1 122055Z 15010KT 42/M01 A2993 RMK A01 T04221008  RH  007%=      5-min Rain = 0
KCO1 122056Z 16007KT 42/M00 A2993 RMK A01 T04241004  RH  007%=      5-min Rain = 0
KCO1 122057Z 17008KT 43/M00 A2993 RMK A01 T04271004  RH  007%=      5-min Rain = 0
KCO1 122058Z 19006KT 42/M01 A2993 RMK A01 T04241006  RH  007%=      5-min Rain = 0
KCO1 122059Z 17005KT 42/M01 A2993 RMK A01 T04221007  RH  007%=      5-min Rain = 0
KCO1 122100Z 14005KT 42/M01 A2993 RMK A01 T04201006  RH  007%=      5-min Rain = 0
KCO1 122101Z 13010KT 42/M00 A2993 RMK A01 T04211003  RH  007%=      5-min Rain = 0
KCO1 122102Z 13011KT 42/00 A2993 RMK A01 T042400-0  RH  007%=      5-min Rain = 0
KCO1 122103Z 14011KT 43/00 A2992 RMK A01 T04250003  RH  007%=      5-min Rain = 0
KCO1 122104Z 13012KT 43/00 A2992 RMK A01 T04280001  RH  007%=      5-min Rain = 0
KCO1 122105Z 12013KT 43/M00 A2992 RMK A01 T04271001  RH  007%=      5-min Rain = 0
KCO1 122106Z 13011KT 42/M00 A2992 RMK A01 T04231001  RH  007%=      5-min Rain = 0
KCO1 122107Z 16013KT 42/M00 A2992 RMK A01 T04211001  RH  007%=      5-min Rain = 0
KCO1 122108Z 16011KT 42/M00 A2992 RMK A01 T04201004  RH  007%=      5-min Rain = 0
KCO1 122109Z 15007KT 42/M00 A2992 RMK A01 T04181002  RH  007%=      5-min Rain = 0
KCO1 122110Z 13005KT 42/M00 A2992 RMK A01 T04191002  RH  007%=      5-min Rain = 0
KCO1 122111Z 14006KT 42/M00 A2992 RMK A01 T04191001  RH  007%=      5-min Rain = 0
KCO1 122112Z 14006KT 42/00 A2992 RMK A01 T04190002  RH  008%=      5-min Rain = 0
KCO1 122113Z 12008G14KT 42/01 A2992 RMK A01 T04220005  RH  008%=      5-min Rain = 0
KCO1 122114Z 13012KT 42/M00 A2992 RMK A01 T04231002  RH  007%=      5-min Rain = 0
KCO1 122115Z 13008KT 42/M00 A2992 RMK A01 T04191004  RH  007%=      5-min Rain = 0
KCO1 122116Z 17008KT 42/00 A2991 RMK A01 T04170002  RH  008%=      5-min Rain = 0
KCO1 122117Z 16007KT 42/M00 A2991 RMK A01 T04171003  RH  007%=      5-min Rain = 0
KCO1 122118Z 17007KT 42/00 A2991 RMK A01 T04170001  RH  008%=      5-min Rain = 0
KCO1 122119Z 14008G14KT 42/01 A2991 RMK A01 T04190005  RH  008%=      5-min Rain = 0
KCO1 122120Z 14011KT 42/00 A2991 RMK A01 T04210003  RH  008%=      5-min Rain = 0
KCO1 122121Z 13009KT 42/00 A2991 RMK A01 T04210002  RH  008%=      5-min Rain = 0
KCO1 122122Z 14005KT 42/00 A2991 RMK A01 T04200003  RH  008%=      5-min Rain = 0
KCO1 122123Z 13008G15KT 42/01 A2991 RMK A01 T04200005  RH  008%=      5-min Rain = 0
KCO1 122124Z 14013KT 42/01 A2991 RMK A01 T04220006  RH  008%=      5-min Rain = 0
KCO1 122125Z 13010KT 42/01 A2991 RMK A01 T04220006  RH  008%=      5-min Rain = 0
KCO1 122126Z 13012KT 42/00 A2991 RMK A01 T04210003  RH  008%=      5-min Rain = 0
KCO1 122127Z 13012KT 42/01 A2991 RMK A01 T04200007  RH  008%=      5-min Rain = 0
KCO1 122128Z 13011G17KT 42/01 A2991 RMK A01 T04210006  RH  008%=      5-min Rain = 0
KCO1 122129Z 13019KT 42/01 A2991 RMK A01 T04220006  RH  008%=      5-min Rain = 0
KCO1 122130Z 13017KT 42/00 A2991 RMK A01 T04210004  RH  008%=      5-min Rain = 0
KCO1 122131Z 12012G17KT 42/01 A2991 RMK A01 T04210006  RH  008%=      5-min Rain = 0
KCO1 122132Z 11009KT 42/00 A2991 RMK A01 T04210003  RH  008%=      5-min Rain = 0
KCO1 122133Z 13008KT 42/00 A2991 RMK A01 T04190002  RH  008%=      5-min Rain = 0
KCO1 122134Z 11012KT 42/01 A2991 RMK A01 T04190007  RH  008%=      5-min Rain = 0
KCO1 122135Z 13011G18KT 42/01 A2991 RMK A01 T04220010  RH  008%=      5-min Rain = 0
KCO1 122136Z 16013KT 43/01 A299 RMK A01 T04260011  RH  008%=      5-min Rain = 0
KCO1 122137Z 15014KT 43/01 A2991 RMK A01 T04280006  RH  007%=      5-min Rain = 0
KCO1 122138Z 15014KT 43/01 A2991 RMK A01 T04270007  RH  008%=      5-min Rain = 0
KCO1 122139Z 16013KT 43/00 A299 RMK A01 T04260004  RH  007%=      5-min Rain = 0
KCO1 122140Z 17012KT 42/01 A299 RMK A01 T04240006  RH  008%=      5-min Rain = 0
KCO1 122141Z 16012KT 42/01 A2991 RMK A01 T04240010  RH  008%=      5-min Rain = 0
KCO1 122142Z 15013KT 43/01 A299 RMK A01 T04250007  RH  008%=      5-min Rain = 0
KCO1 122143Z 16012KT 42/00 A299 RMK A01 T04240002  RH  007%=      5-min Rain = 0
KCO1 122144Z 13010KT 42/00 A2991 RMK A01 T04200004  RH  008%=      5-min Rain = 0
KCO1 122145Z 13009KT 42/01 A299 RMK A01 T04190006  RH  008%=      5-min Rain = 0
KCO1 122146Z 13009KT 42/01 A299 RMK A01 T04200009  RH  008%=      5-min Rain = 0
KCO1 122147Z 11014G19KT 42/01 A2991 RMK A01 T04230008  RH  008%=      5-min Rain = 0
KCO1 122148Z 12011KT 42/01 A2991 RMK A01 T04230006  RH  008%=      5-min Rain = 0
KCO1 122149Z 12010KT 42/01 A2991 RMK A01 T04210006  RH  008%=      5-min Rain = 0
KCO1 122150Z 13012KT 42/01 A299 RMK A01 T04210005  RH  008%=      5-min Rain = 0
KCO1 122151Z 14011KT 42/01 A299 RMK A01 T04210006  RH  008%=      5-min Rain = 0
KCO1 122152Z 15011KT 42/01 A299 RMK A01 T04220005  RH  008%=      5-min Rain = 0
KCO1 122153Z 17011KT 42/01 A299 RMK A01 T04220006  RH  008%=      5-min Rain = 0
KCO1 122154Z 18009KT 42/00 A299 RMK A01 T04210001  RH  007%=      5-min Rain = 0
KCO1 122155Z 14005KT 42/00 A299 RMK A01 T04180004  RH  008%=      5-min Rain = 0
KCO1 122156Z 12008KT 42/01 A299 RMK A01 T04190009  RH  008%=      5-min Rain = 0
KCO1 122157Z 11012KT 42/01 A299 RMK A01 T04230008  RH  008%=      5-min Rain = 0
KCO1 122158Z 12013KT 43/00 A299 RMK A01 T04260001  RH  007%=      5-min Rain = 0
KCO1 122159Z 11011KT 42/00 A299 RMK A01 T04240001  RH  007%=      5-min Rain = 0
KCO1 122200Z 12009G15KT 42/00 A299 RMK A01 T04230004  RH  008%=      5-min Rain = 0
KCO1 122201Z 12012KT 42/01 A299 RMK A01 T04230005  RH  008%=      5-min Rain = 0
KCO1 122202Z 11011KT 42/00 A299 RMK A01 T04240002  RH  007%=      5-min Rain = 0
KCO1 122203Z 10010KT 42/00 A299 RMK A01 T04240001  RH  007%=      5-min Rain = 0
KCO1 122204Z 12010KT 43/00 A299 RMK A01 T04250003  RH  007%=      5-min Rain = 0
KCO1 122205Z 11011KT 43/00 A299 RMK A01 T04250003  RH  007%=      5-min Rain = 0
KCO1 122206Z 10012G17KT 43/00 A299 RMK A01 T04250002  RH  007%=      5-min Rain = 0
KCO1 122207Z 10013KT 42/00 A299 RMK A01 T04230000  RH  007%=      5-min Rain = 0
KCO1 122208Z 13011KT 42/00 A299 RMK A01 T04210002  RH  008%=      5-min Rain = 0
KCO1 122209Z 14013KT 42/01 A299 RMK A01 T04220007  RH  008%=      5-min Rain = 0
KCO1 122210Z 13014KT 43/01 A299 RMK A01 T04250005  RH  008%=      5-min Rain = 0
KCO1 122211Z 13013KT 42/00 A299 RMK A01 T04230004  RH  008%=      5-min Rain = 0
KCO1 122212Z 15016KT 42/01 A299 RMK A01 T04230007  RH  008%=      5-min Rain = 0
KCO1 122213Z 14015KT 42/00 A299 RMK A01 T04230002  RH  007%=      5-min Rain = 0
KCO1 122214Z 14010KT 42/00 A299 RMK A01 T04220003  RH  008%=      5-min Rain = 0
KCO1 122215Z 17007KT 42/00 A299 RMK A01 T04210003  RH  008%=      5-min Rain = 0
KCO1 122216Z 15008KT 42/00 A299 RMK A01 T04210002  RH  008%=      5-min Rain = 0
KCO1 122217Z 12011KT 42/01 A299 RMK A01 T04210007  RH  008%=      5-min Rain = 0
KCO1 122218Z 11014KT 42/01 A299 RMK A01 T04220005  RH  008%=      5-min Rain = 0
KCO1 122219Z 11011KT 42/00 A299 RMK A01 T04230002  RH  007%=      5-min Rain = 0
KCO1 122220Z 12011G17KT 42/00 A299 RMK A01 T04220003  RH  008%=      5-min Rain = 0
KCO1 122221Z 14015KT 42/00 A299 RMK A01 T04210003  RH  008%=      5-min Rain = 0
KCO1 122222Z 14014G19KT 42/00 A2989 RMK A01 T04220003  RH  008%=      5-min Rain = 0
KCO1 122223Z 14014KT 42/00 A2989 RMK A01 T04230004  RH  008%=      5-min Rain = 0
KCO1 122224Z 15012KT 43/00 A2989 RMK A01 T04250004  RH  007%=      5-min Rain = 0
KCO1 122225Z 15010KT 42/00 A2989 RMK A01 T04240002  RH  007%=      5-min Rain = 0
KCO1 122226Z 13013KT 42/01 A2989 RMK A01 T04240006  RH  008%=      5-min Rain = 0
KCO1 122227Z 13013KT 43/00 A2989 RMK A01 T04260002  RH  007%=      5-min Rain = 0
KCO1 122228Z 13010KT 43/00 A2989 RMK A01 T04250002  RH  007%=      5-min Rain = 0
KCO1 122229Z 13008KT 42/01 A2989 RMK A01 T04240006  RH  008%=      5-min Rain = 0
KCO1 122230Z 11008KT 43/01 A2989 RMK A01 T04260006  RH  008%=      5-min Rain = 0
KCO1 122231Z 11010KT 43/00 A2989 RMK A01 T04260001  RH  007%=      5-min Rain = 0
KCO1 122232Z 11010G15KT 42/00 A2989 RMK A01 T04230001  RH  007%=      5-min Rain = 0
KCO1 122233Z 11010KT 42/00 A2989 RMK A01 T04230003  RH  007%=      5-min Rain = 0
KCO1 122234Z 10010KT 43/00 A2989 RMK A01 T04250003  RH  007%=      5-min Rain = 0
KCO1 122235Z 09013KT 43/M00 A2989 RMK A01 T04261001  RH  007%=      5-min Rain = 0
KCO1 122236Z 11012KT 42/M00 A2989 RMK A01 T04241001  RH  007%=      5-min Rain = 0
KCO1 122237Z 13011KT 43/01 A2989 RMK A01 T04250006  RH  008%=      5-min Rain = 0
KCO1 122238Z 15013KT 43/01 A2989 RMK A01 T04270008  RH  008%=      5-min Rain = 0
KCO1 122239Z 15012KT 43/01 A2989 RMK A01 T04280005  RH  007%=      5-min Rain = 0
KCO1 122240Z 16012KT 43/00 A2989 RMK A01 T04250004  RH  007%=      5-min Rain = 0
KCO1 122241Z 16009KT 42/00 A2989 RMK A01 T04240003  RH  007%=      5-min Rain = 0
KCO1 122242Z 14009KT 42/01 A2989 RMK A01 T04240005  RH  008%=      5-min Rain = 0
KCO1 122243Z 13011G18KT 42/01 A2989 RMK A01 T04240007  RH  008%=      5-min Rain = 0
KCO1 122244Z 13015G20KT 43/01 A2989 RMK A01 T04270008  RH  008%=      5-min Rain = 0
KCO1 122245Z 13013G18KT 43/01 A2989 RMK A01 T04280007  RH  008%=      5-min Rain = 0
KCO1 122246Z 13016KT 43/00 A2988 RMK A01 T04270002  RH  007%=      5-min Rain = 0
KCO1 122247Z 12012KT 42/01 A2988 RMK A01 T04240005  RH  008%=      5-min Rain = 0
KCO1 122248Z 12015KT 42/00 A2989 RMK A01 T04240004  RH  008%=      5-min Rain = 0
KCO1 122249Z 13012KT 42/01 A2989 RMK A01 T04240006  RH  008%=      5-min Rain = 0
KCO1 122250Z 12015G20KT 43/01 A2988 RMK A01 T04250006  RH  008%=      5-min Rain = 0
KCO1 122251Z 13016G21KT 42/00 A2989 RMK A01 T04240001  RH  007%=      5-min Rain = 0
KCO1 122252Z 13010KT 42/00 A2988 RMK A01 T04210001  RH  007%=      5-min Rain = 0
KCO1 122253Z 14012KT 42/00 A2988 RMK A01 T04190002  RH  008%=      5-min Rain = 0
KCO1 122254Z 12013KT 42/01 A2988 RMK A01 T04200006  RH  008%=      5-min Rain = 0
KCO1 122255Z 12013KT 42/01 A2988 RMK A01 T04230006  RH  008%=      5-min Rain = 0
KCO1 122256Z 12013KT 42/00 A2988 RMK A01 T04240003  RH  007%=      5-min Rain = 0
KCO1 122257Z 12011KT 42/00 A2988 RMK A01 T04220003  RH  008%=      5-min Rain = 0
KCO1 122258Z 12011KT 42/00 A2988 RMK A01 T04210004  RH  008%=      5-min Rain = 0
KCO1 122259Z 13009KT 42/01 A2988 RMK A01 T04210008  RH  008%=      5-min Rain = 0
KCO1 122300Z 14016KT 42/01 A2988 RMK A01 T04240007  RH  008%=      5-min Rain = 0
KCO1 122301Z 14015KT 42/00 A2988 RMK A01 T04240004  RH  008%=      5-min Rain = 0
KCO1 122302Z 13012KT 42/00 A2988 RMK A01 T04230002  RH  007%=      5-min Rain = 0
KCO1 122303Z 13010KT 42/00 A2988 RMK A01 T04220002  RH  007%=      5-min Rain = 0
KCO1 122304Z 13011KT 42/00 A2988 RMK A01 T04200004  RH  008%=      5-min Rain = 0
KCO1 122305Z 14012KT 42/01 A2988 RMK A01 T04220008  RH  008%=      5-min Rain = 0
KCO1 122306Z 15014KT 42/00 A2988 RMK A01 T04240003  RH  007%=      5-min Rain = 0
KCO1 122307Z 14012KT 42/00 A2988 RMK A01 T04220003  RH  008%=      5-min Rain = 0
KCO1 122308Z 12014KT 42/00 A2988 RMK A01 T04210004  RH  008%=      5-min Rain = 0
KCO1 122309Z 12013KT 42/00 A2988 RMK A01 T04200003  RH  008%=      5-min Rain = 0
KCO1 122310Z 13014KT 42/01 A2988 RMK A01 T04210005  RH  008%=      5-min Rain = 0
KCO1 122311Z 14014KT 42/00 A2988 RMK A01 T04220003  RH  008%=      5-min Rain = 0
KCO1 122312Z 14014KT 42/00 A2988 RMK A01 T04210004  RH  008%=      5-min Rain = 0
KCO1 122313Z 14012KT 42/00 A2988 RMK A01 T04210004  RH  008%=      5-min Rain = 0
KCO1 122314Z 13016KT 42/00 A2988 RMK A01 T04210004  RH  008%=      5-min Rain = 0
KCO1 122315Z 13014KT 42/00 A2988 RMK A01 T04190001  RH  008%=      5-min Rain = 0
KCO1 122316Z 14009KT 42/00 A2988 RMK A01 T04180002  RH  008%=      5-min Rain = 0
KCO1 122317Z 15014KT 42/00 A2988 RMK A01 T04170003  RH  008%=      5-min Rain = 0
KCO1 122318Z 14012KT 42/00 A2988 RMK A01 T04170004  RH  008%=      5-min Rain = 0
KCO1 122319Z 13010KT 42/00 A2988 RMK A01 T04190004  RH  008%=      5-min Rain = 0
KCO1 122320Z 13007KT 42/00 A2988 RMK A01 T04190002  RH  008%=      5-min Rain = 0
KCO1 122321Z 13013KT 42/01 A2988 RMK A01 T04190007  RH  008%=      5-min Rain = 0
KCO1 122322Z 11012G18KT 42/01 A2988 RMK A01 T04190010  RH  008%=      5-min Rain = 0
KCO1 122323Z 12016KT 42/01 A2988 RMK A01 T04200009  RH  008%=      5-min Rain = 0
KCO1 122324Z 12014KT 42/01 A2988 RMK A01 T04190006  RH  008%=      5-min Rain = 0
KCO1 122325Z 11013KT 42/01 A2988 RMK A01 T04180005  RH  008%=      5-min Rain = 0
KCO1 122326Z 12012KT 42/01 A2988 RMK A01 T04170005  RH  008%=      5-min Rain = 0
KCO1 122327Z 11008KT 42/01 A2988 RMK A01 T04180008  RH  008%=      5-min Rain = 0
KCO1 122328Z 11012KT 42/01 A2988 RMK A01 T04200010  RH  008%=      5-min Rain = 0
KCO1 122329Z 12014G19KT 42/01 A2988 RMK A01 T04200006  RH  008%=      5-min Rain = 0
KCO1 122330Z 12014KT 42/01 A2988 RMK A01 T04190005  RH  008%=      5-min Rain = 0
KCO1 122331Z 13013KT 42/01 A2988 RMK A01 T04180006  RH  008%=      5-min Rain = 0
KCO1 122332Z 14011KT 42/01 A2988 RMK A01 T04180007  RH  008%=      5-min Rain = 0
KCO1 122333Z 14010KT 42/01 A2987 RMK A01 T04180008  RH  008%=      5-min Rain = 0
KCO1 122334Z 15014KT 42/01 A2987 RMK A01 T04190009  RH  008%=      5-min Rain = 0
KCO1 122335Z 15011KT 42/01 A2987 RMK A01 T04200007  RH  008%=      5-min Rain = 0
KCO1 122336Z 14013KT 42/01 A2987 RMK A01 T04200007  RH  008%=      5-min Rain = 0
KCO1 122337Z 13014KT 42/01 A2988 RMK A01 T04200007  RH  008%=      5-min Rain = 0
KCO1 122338Z 13013KT 42/01 A2988 RMK A01 T04190007  RH  008%=      5-min Rain = 0
KCO1 122339Z 14011KT 42/01 A2987 RMK A01 T04180009  RH  008%=      5-min Rain = 0
KCO1 122340Z 14010KT 42/01 A2987 RMK A01 T04180011  RH  008%=      5-min Rain = 0
KCO1 122341Z 12011KT 42/01 A2987 RMK A01 T04180010  RH  008%=      5-min Rain = 0
KCO1 122342Z 12017KT 42/01 A2987 RMK A01 T04170010  RH  008%=      5-min Rain = 0
KCO1 122343Z 12015KT 42/01 A2987 RMK A01 T04160008  RH  008%=      5-min Rain = 0
KCO1 122344Z 13011KT 42/01 A2987 RMK A01 T04150011  RH  008%=      5-min Rain = 0
KCO1 122345Z 14011KT 42/01 A2987 RMK A01 T04160010  RH  008%=      5-min Rain = 0
KCO1 122346Z 14012KT 42/01 A2987 RMK A01 T04170010  RH  008%=      5-min Rain = 0
KCO1 122347Z 15011KT 42/01 A2987 RMK A01 T04170008  RH  008%=      5-min Rain = 0
KCO1 122348Z 14014KT 42/01 A2987 RMK A01 T04160009  RH  008%=      5-min Rain = 0
KCO1 122349Z 13011KT 42/01 A2988 RMK A01 T04160010  RH  008%=      5-min Rain = 0
KCO1 122350Z 13010KT 42/01 A2988 RMK A01 T04170011  RH  008%=      5-min Rain = 0
KCO1 122351Z 13009KT 42/01 A2988 RMK A01 T04170008  RH  008%=      5-min Rain = 0
KCO1 122352Z 12010KT 42/01 A2987 RMK A01 T04160010  RH  008%=      5-min Rain = 0
KCO1 122353Z 12013KT 42/01 A2987 RMK A01 T04170014  RH  008%=      5-min Rain = 0
KCO1 122354Z 13014KT 42/01 A2988 RMK A01 T04150011  RH  008%=      5-min Rain = 0
KCO1 122355Z 13012KT 42/01 A2987 RMK A01 T04150009  RH  008%=      5-min Rain = 0
KCO1 122356Z 12009KT 41/01 A2988 RMK A01 T04140009  RH  008%=      5-min Rain = 0
KCO1 122357Z 12009G14KT 41/01 A2987 RMK A01 T04140012  RH  008%=      5-min Rain = 0
KCO1 122358Z 13011KT 42/01 A2988 RMK A01 T04150012  RH  008%=      5-min Rain = 0
KCO1 122359Z 14010KT 42/01 A2988 RMK A01 T04160013  RH  008%=      5-min Rain = 0
KCO1 130000Z 15011KT 42/01 A2987 RMK A01 T04160012  RH  008%=      5-min Rain = 0
KCO1 130001Z 14009G14KT 42/01 A2988 RMK A01 T04150014  RH  008%=      5-min Rain = 0
KCO1 130002Z 13013KT 42/02 A2988 RMK A01 T04160017  RH  009%=      5-min Rain = 0
KCO1 130003Z 12013KT 42/02 A2988 RMK A01 T04160015  RH  008%=      5-min Rain = 0
KCO1 130004Z 12013KT 42/02 A2988 RMK A01 T04150015  RH  009%=      5-min Rain = 0
KCO1 130005Z 13011KT 41/02 A2988 RMK A01 T04140017  RH  009%=      5-min Rain = 0
KCO1 130006Z 13010KT 41/02 A2988 RMK A01 T04140021  RH  009%=      5-min Rain = 0
KCO1 130007Z 13011KT 42/02 A2988 RMK A01 T04150021  RH  009%=      5-min Rain = 0
KCO1 130008Z 14013KT 42/02 A2988 RMK A01 T04150016  RH  009%=      5-min Rain = 0
KCO1 130009Z 13012KT 41/02 A2988 RMK A01 T04140016  RH  009%=      5-min Rain = 0
KCO1 130010Z 13011KT 41/02 A2988 RMK A01 T04130019  RH  009%=      5-min Rain = 0
KCO1 130011Z 13012KT 41/02 A2988 RMK A01 T04140018  RH  009%=      5-min Rain = 0
KCO1 130012Z 12011KT 41/02 A2988 RMK A01 T04140017  RH  009%=      5-min Rain = 0
KCO1 130013Z 12010KT 41/02 A2988 RMK A01 T04130016  RH  009%=      5-min Rain = 0
KCO1 130014Z 12010KT 41/02 A2988 RMK A01 T04120017  RH  009%=      5-min Rain = 0
KCO1 130015Z 12009KT 41/01 A2988 RMK A01 T04120014  RH  009%=      5-min Rain = 0
KCO1 130016Z 13010G16KT 41/02 A2988 RMK A01 T04120019  RH  009%=      5-min Rain = 0
KCO1 130017Z 12013KT 41/02 A2988 RMK A01 T04120018  RH  009%=      5-min Rain = 0
KCO1 130018Z 13013KT 41/02 A2988 RMK A01 T04110019  RH  009%=      5-min Rain = 0
KCO1 130019Z 13013KT 41/02 A2988 RMK A01 T04100016  RH  009%=      5-min Rain = 0
KCO1 130020Z 13012KT 41/02 A2988 RMK A01 T04100021  RH  009%=      5-min Rain = 0
KCO1 130021Z 13012KT 41/02 A2988 RMK A01 T04100024  RH  009%=      5-min Rain = 0
KCO1 130022Z 13011KT 41/02 A2988 RMK A01 T04100024  RH  009%=      5-min Rain = 0
KCO1 130023Z 13012KT 41/02 A2988 RMK A01 T04100023  RH  009%=      5-min Rain = 0
KCO1 130024Z 13012KT 41/02 A2988 RMK A01 T04100022  RH  009%=      5-min Rain = 0
KCO1 130025Z 13010KT 41/02 A2988 RMK A01 T04100024  RH  009%=      5-min Rain = 0
KCO1 130026Z 15011KT 41/02 A2988 RMK A01 T04100022  RH  009%=      5-min Rain = 0
KCO1 130027Z 14010KT 41/02 A2988 RMK A01 T04090018  RH  009%=      5-min Rain = 0
KCO1 130028Z 14012KT 41/02 A2988 RMK A01 T04100018  RH  009%=      5-min Rain = 0
KCO1 130029Z 14011KT 41/02 A2988 RMK A01 T04100018  RH  009%=      5-min Rain = 0
KCO1 130030Z 14013KT 41/02 A2988 RMK A01 T04100018  RH  009%=      5-min Rain = 0
KCO1 130031Z 14010KT 41/02 A2988 RMK A01 T04090018  RH  009%=      5-min Rain = 0
KCO1 130032Z 13011KT 41/02 A2988 RMK A01 T04080016  RH  009%=      5-min Rain = 0
KCO1 130033Z 13010G15KT 41/02 A2988 RMK A01 T04080018  RH  009%=      5-min Rain = 0
KCO1 130034Z 13014KT 41/02 A2988 RMK A01 T04080020  RH  009%=      5-min Rain = 0
KCO1 130035Z 13012KT 41/02 A2988 RMK A01 T04080020  RH  009%=      5-min Rain = 0
KCO1 130036Z 13009KT 41/02 A2988 RMK A01 T04080022  RH  009%=      5-min Rain = 0
KCO1 130037Z 13012KT 41/02 A2988 RMK A01 T04080023  RH  009%=      5-min Rain = 0
KCO1 130038Z 12014KT 41/02 A2988 RMK A01 T04080023  RH  009%=      5-min Rain = 0
KCO1 130039Z 12012KT 41/02 A2988 RMK A01 T04070023  RH  009%=      5-min Rain = 0
KCO1 130040Z 13014KT 41/02 A2988 RMK A01 T04050022  RH  009%=      5-min Rain = 0
KCO1 130041Z 13014KT 41/02 A2988 RMK A01 T04050022  RH  009%=      5-min Rain = 0
KCO1 130042Z 13012KT 41/02 A2988 RMK A01 T04050020  RH  009%=      5-min Rain = 0
KCO1 130043Z 13011G16KT 41/02 A2988 RMK A01 T04050022  RH  009%=      5-min Rain = 0
KCO1 130044Z 12013KT 41/02 A2988 RMK A01 T04050023  RH  010%=      5-min Rain = 0
KCO1 130045Z 12012KT 40/02 A2988 RMK A01 T04040022  RH  010%=      5-min Rain = 0
KCO1 130046Z 12012KT 40/02 A2988 RMK A01 T04040022  RH  010%=      5-min Rain = 0
KCO1 130047Z 12011G17KT 40/02 A2988 RMK A01 T04040021  RH  009%=      5-min Rain = 0
KCO1 130048Z 11015KT 40/02 A2988 RMK A01 T04040020  RH  009%=      5-min Rain = 0
KCO1 130049Z 12014G20KT 40/02 A2988 RMK A01 T04030016  RH  009%=      5-min Rain = 0
KCO1 130050Z 13012KT 40/02 A2988 RMK A01 T04030017  RH  009%=      5-min Rain = 0
KCO1 130051Z 13012KT 40/01 A2988 RMK A01 T04030014  RH  009%=      5-min Rain = 0
KCO1 130052Z 14010KT 40/01 A2988 RMK A01 T04030014  RH  009%=      5-min Rain = 0
KCO1 130053Z 13011KT 40/02 A2988 RMK A01 T04030016  RH  009%=      5-min Rain = 0
KCO1 130054Z 13010KT 40/02 A2988 RMK A01 T04030015  RH  009%=      5-min Rain = 0
KCO1 130055Z 13012KT 40/01 A2988 RMK A01 T04030014  RH  009%=      5-min Rain = 0
KCO1 130056Z 13009KT 40/01 A2988 RMK A01 T04030013  RH  009%=      5-min Rain = 0
KCO1 130057Z 14007KT 40/02 A2988 RMK A01 T04020016  RH  009%=      5-min Rain = 0
KCO1 130058Z 13010KT 40/02 A2988 RMK A01 T04020017  RH  009%=      5-min Rain = 0
KCO1 130059Z 12009KT 40/02 A2988 RMK A01 T04020017  RH  009%=      5-min Rain = 0
KCO1 130100Z 13011KT 40/02 A2988 RMK A01 T04020018  RH  009%=      5-min Rain = 0
KCO1 130101Z 13010KT 40/02 A2988 RMK A01 T04000019  RH  009%=      5-min Rain = 0
KCO1 130102Z 12009KT 40/02 A2988 RMK A01 T04000020  RH  010%=      5-min Rain = 0
KCO1 130103Z 13011KT 40/02 A2988 RMK A01 T03990023  RH  010%=      5-min Rain = 0
KCO1 130104Z 13011KT 40/02 A2988 RMK A01 T03980020  RH  010%=      5-min Rain = 0
KCO1 130105Z 13012KT 40/02 A2988 RMK A01 T03980020  RH  010%=      5-min Rain = 0
KCO1 130106Z 14011KT 40/02 A2987 RMK A01 T03980019  RH  010%=      5-min Rain = 0
KCO1 130107Z 14012KT 40/02 A2987 RMK A01 T03990021  RH  010%=      5-min Rain = 0
KCO1 130108Z 13010KT 40/02 A2988 RMK A01 T03990021  RH  010%=      5-min Rain = 0
KCO1 130109Z 13013KT 40/02 A2988 RMK A01 T03980021  RH  010%=      5-min Rain = 0
KCO1 130110Z 13012KT 40/02 A2988 RMK A01 T03980021  RH  010%=      5-min Rain = 0
KCO1 130111Z 13012KT 40/02 A2988 RMK A01 T03970022  RH  010%=      5-min Rain = 0
KCO1 130112Z 13009KT 40/02 A2988 RMK A01 T03970021  RH  010%=      5-min Rain = 0
KCO1 130113Z 13012KT 40/02 A2988 RMK A01 T03960023  RH  010%=      5-min Rain = 0
KCO1 130114Z 13013KT 40/02 A2988 RMK A01 T03960020  RH  010%=      5-min Rain = 0
KCO1 130115Z 13011KT 40/02 A2988 RMK A01 T03960019  RH  010%=      5-min Rain = 0
KCO1 130116Z 13010KT 40/02 A2988 RMK A01 T03950022  RH  010%=      5-min Rain = 0
KCO1 130117Z 13009KT 40/02 A2988 RMK A01 T03950023  RH  010%=      5-min Rain = 0
KCO1 130118Z 13008KT 39/02 A2988 RMK A01 T03940024  RH  010%=      5-min Rain = 0
KCO1 130119Z 13011KT 39/02 A2988 RMK A01 T03930023  RH  010%=      5-min Rain = 0
KCO1 130120Z 13009KT 39/02 A2988 RMK A01 T03930023  RH  010%=      5-min Rain = 0
KCO1 130121Z 13008KT 39/02 A2988 RMK A01 T03930024  RH  010%=      5-min Rain = 0
KCO1 130122Z 13008G13KT 39/03 A2988 RMK A01 T03920025  RH  010%=      5-min Rain = 0
KCO1 130123Z 12008KT 39/02 A2988 RMK A01 T03910024  RH  010%=      5-min Rain = 0
KCO1 130124Z 13009KT 39/03 A2988 RMK A01 T03900025  RH  010%=      5-min Rain = 0
KCO1 130125Z 13011KT 39/03 A2988 RMK A01 T03890025  RH  010%=      5-min Rain = 0
KCO1 130126Z 13011KT 39/02 A2988 RMK A01 T03890022  RH  010%=      5-min Rain = 0
KCO1 130127Z 13011KT 39/02 A2988 RMK A01 T03890020  RH  010%=      5-min Rain = 0
KCO1 130128Z 14009KT 39/02 A2988 RMK A01 T03890019  RH  010%=      5-min Rain = 0
KCO1 130129Z 13009KT 39/02 A2988 RMK A01 T03890020  RH  010%=      5-min Rain = 0
KCO1 130130Z 13011KT 39/02 A2988 RMK A01 T03880019  RH  010%=      5-min Rain = 0
KCO1 130131Z 14008KT 39/02 A2988 RMK A01 T03880018  RH  010%=      5-min Rain = 0
KCO1 130132Z 14009KT 39/02 A2988 RMK A01 T03870019  RH  010%=      5-min Rain = 0
KCO1 130133Z 13008KT 39/02 A2988 RMK A01 T03860020  RH  010%=      5-min Rain = 0
KCO1 130134Z 14007KT 39/02 A2988 RMK A01 T03850020  RH  010%=      5-min Rain = 0
KCO1 130135Z 13007KT 38/02 A2988 RMK A01 T03830020  RH  010%=      5-min Rain = 0
KCO1 130136Z 13008KT 38/02 A2988 RMK A01 T03820020  RH  011%=      5-min Rain = 0
KCO1 130137Z 13008KT 38/02 A2988 RMK A01 T03810020  RH  011%=      5-min Rain = 0
KCO1 130138Z 13008KT 38/02 A2988 RMK A01 T03800020  RH  011%=      5-min Rain = 0
KCO1 130139Z 13008KT 38/02 A2988 RMK A01 T03800021  RH  011%=      5-min Rain = 0
KCO1 130140Z 13007KT 38/02 A2988 RMK A01 T03790021  RH  011%=      5-min Rain = 0
KCO1 130141Z 13008KT 38/02 A2988 RMK A01 T03780021  RH  011%=      5-min Rain = 0
KCO1 130142Z 13009KT 38/02 A2988 RMK A01 T03770021  RH  011%=      5-min Rain = 0
KCO1 130143Z 13008KT 38/02 A2988 RMK A01 T03770021  RH  011%=      5-min Rain = 0
KCO1 130144Z 13008KT 38/02 A2988 RMK A01 T03770021  RH  011%=      5-min Rain = 0
KCO1 130145Z 13009KT 38/02 A2988 RMK A01 T03760021  RH  011%=      5-min Rain = 0
KCO1 130146Z 13009KT 38/02 A2988 RMK A01 T03760020  RH  011%=      5-min Rain = 0
KCO1 130147Z 13008KT 38/02 A2988 RMK A01 T03750020  RH  011%=      5-min Rain = 0
KCO1 130148Z 13008KT 38/02 A2988 RMK A01 T03750021  RH  011%=      5-min Rain = 0
KCO1 130149Z 13008KT 37/02 A2988 RMK A01 T03740020  RH  011%=      5-min Rain = 0
KCO1 130150Z 13008KT 37/02 A2988 RMK A01 T03740021  RH  011%=      5-min Rain = 0
KCO1 130151Z 13009KT 37/02 A2988 RMK A01 T03720021  RH  011%=      5-min Rain = 0
KCO1 130152Z 13009KT 37/02 A2988 RMK A01 T03720021  RH  011%=      5-min Rain = 0
KCO1 130153Z 13008KT 37/02 A2988 RMK A01 T03710020  RH  011%=      5-min Rain = 0
KCO1 130154Z 13007KT 37/02 A2988 RMK A01 T03710021  RH  011%=      5-min Rain = 0
KCO1 130155Z 13008KT 37/02 A2988 RMK A01 T03700022  RH  011%=      5-min Rain = 0
KCO1 130156Z 12008KT 37/02 A2988 RMK A01 T03690021  RH  011%=      5-min Rain = 0
KCO1 130157Z 13009KT 37/02 A2988 RMK A01 T03680022  RH  011%=      5-min Rain = 0
KCO1 130158Z 13008KT 37/02 A2988 RMK A01 T03680022  RH  012%=      5-min Rain = 0
KCO1 130159Z 13008KT 37/02 A2988 RMK A01 T03670023  RH  012%=      5-min Rain = 0
KCO1 130200Z 13007KT 37/02 A2988 RMK A01 T03670023  RH  012%=      5-min Rain = 0
KCO1 130201Z 13007KT 37/02 A2988 RMK A01 T03660024  RH  012%=      5-min Rain = 0
KCO1 130202Z 13008KT 37/02 A2988 RMK A01 T03650024  RH  012%=      5-min Rain = 0
KCO1 130203Z 13008KT 36/02 A2988 RMK A01 T03640024  RH  012%=      5-min Rain = 0
KCO1 130204Z 13008KT 36/02 A2988 RMK A01 T03640024  RH  012%=      5-min Rain = 0
KCO1 130205Z 13008KT 36/03 A2988 RMK A01 T03630025  RH  012%=      5-min Rain = 0
KCO1 130206Z 13008KT 36/03 A2988 RMK A01 T03630025  RH  012%=      5-min Rain = 0
KCO1 130207Z 13007KT 36/03 A2988 RMK A01 T03620025  RH  012%=      5-min Rain = 0
KCO1 130208Z 13008KT 36/03 A2988 RMK A01 T03620026  RH  012%=      5-min Rain = 0
KCO1 130209Z 12007KT 36/03 A2988 RMK A01 T03620026  RH  012%=      5-min Rain = 0
KCO1 130210Z 12008KT 36/03 A2988 RMK A01 T03610027  RH  012%=      5-min Rain = 0
KCO1 130211Z 12008KT 36/03 A2988 RMK A01 T03600027  RH  012%=      5-min Rain = 0
KCO1 130212Z 12008KT 36/03 A2989 RMK A01 T03590027  RH  013%=      5-min Rain = 0
KCO1 130213Z 12008KT 36/03 A2989 RMK A01 T03580028  RH  013%=      5-min Rain = 0
KCO1 130214Z 12007KT 36/03 A2989 RMK A01 T03570029  RH  013%=      5-min Rain = 0
KCO1 130215Z 12007KT 36/03 A2989 RMK A01 T03560029  RH  013%=      5-min Rain = 0
KCO1 130216Z 12008KT 36/03 A2989 RMK A01 T03550030  RH  013%=      5-min Rain = 0
KCO1 130217Z 12008KT 35/03 A2989 RMK A01 T03530030  RH  013%=      5-min Rain = 0
KCO1 130218Z 12008KT 35/03 A2989 RMK A01 T03520031  RH  013%=      5-min Rain = 0
KCO1 130219Z 12007KT 35/03 A2989 RMK A01 T03520031  RH  013%=      5-min Rain = 0
KCO1 130220Z 12007KT 35/03 A2989 RMK A01 T03510031  RH  014%=      5-min Rain = 0
KCO1 130221Z 12007KT 35/03 A2989 RMK A01 T03500031  RH  014%=      5-min Rain = 0
KCO1 130222Z 11007KT 35/03 A2989 RMK A01 T03500032  RH  014%=      5-min Rain = 0
KCO1 130223Z 11008KT 35/03 A2989 RMK A01 T03490032  RH  014%=      5-min Rain = 0
KCO1 130224Z 11007KT 35/03 A2989 RMK A01 T03480033  RH  014%=      5-min Rain = 0
KCO1 130225Z 11008KT 35/03 A2989 RMK A01 T03470033  RH  014%=      5-min Rain = 0
KCO1 130226Z 11008KT 35/04 A2989 RMK A01 T03470035  RH  014%=      5-min Rain = 0
KCO1 130227Z 11008KT 35/04 A2989 RMK A01 T03470036  RH  014%=      5-min Rain = 0
KCO1 130228Z 12008KT 35/04 A2989 RMK A01 T03470037  RH  014%=      5-min Rain = 0
KCO1 130229Z 12008KT 35/04 A2989 RMK A01 T03470038  RH  015%=      5-min Rain = 0
KCO1 130230Z 11007KT 35/04 A2989 RMK A01 T03460038  RH  015%=      5-min Rain = 0
KCO1 130231Z 11007KT 35/04 A2989 RMK A01 T03450039  RH  015%=      5-min Rain = 0
KCO1 130232Z 11008KT 34/04 A2989 RMK A01 T03440039  RH  015%=      5-min Rain = 0
KCO1 130233Z 11007KT 35/04 A2989 RMK A01 T03450039  RH  015%=      5-min Rain = 0
KCO1 130234Z 11007KT 34/04 A2989 RMK A01 T03440039  RH  015%=      5-min Rain = 0
KCO1 130235Z 11007KT 34/04 A299 RMK A01 T03430038  RH  015%=      5-min Rain = 0
KCO1 130236Z 11007KT 34/04 A299 RMK A01 T03430039  RH  015%=      5-min Rain = 0
KCO1 130237Z 11008KT 34/04 A299 RMK A01 T03430039  RH  015%=      5-min Rain = 0
KCO1 130238Z 11008KT 34/04 A299 RMK A01 T03430039  RH  015%=      5-min Rain = 0
KCO1 130239Z 12007KT 34/04 A299 RMK A01 T03430040  RH  015%=      5-min Rain = 0
KCO1 130240Z 11008KT 34/04 A299 RMK A01 T03430041  RH  015%=      5-min Rain = 0
KCO1 130241Z 11008KT 34/04 A299 RMK A01 T03430042  RH  015%=      5-min Rain = 0
KCO1 130242Z 12009KT 34/04 A299 RMK A01 T03430044  RH  016%=      5-min Rain = 0
KCO1 130243Z 11008KT 34/05 A299 RMK A01 T03430046  RH  016%=      5-min Rain = 0
KCO1 130244Z 12008KT 34/05 A299 RMK A01 T03430048  RH  016%=      5-min Rain = 0
KCO1 130245Z 11009KT 34/05 A299 RMK A01 T03430050  RH  016%=      5-min Rain = 0
KCO1 130246Z 12009KT 34/05 A299 RMK A01 T03430052  RH  016%=      5-min Rain = 0
KCO1 130247Z 12008KT 34/06 A299 RMK A01 T03430055  RH  017%=      5-min Rain = 0
KCO1 130248Z 12009KT 34/06 A299 RMK A01 T03430057  RH  017%=      5-min Rain = 0
KCO1 130249Z 12009KT 34/06 A299 RMK A01 T03430059  RH  017%=      5-min Rain = 0
KCO1 130250Z 12008KT 34/06 A299 RMK A01 T03430061  RH  017%=      5-min Rain = 0
KCO1 130251Z 12009KT 34/06 A299 RMK A01 T03430063  RH  018%=      5-min Rain = 0
KCO1 130252Z 12009KT 34/07 A299 RMK A01 T03420066  RH  018%=      5-min Rain = 0
KCO1 130253Z 12009KT 34/07 A299 RMK A01 T03420067  RH  018%=      5-min Rain = 0
KCO1 130254Z 12010KT 34/07 A299 RMK A01 T03430068  RH  018%=      5-min Rain = 0
KCO1 130255Z 12009KT 34/07 A299 RMK A01 T03430069  RH  018%=      5-min Rain = 0
KCO1 130256Z 12009KT 34/07 A299 RMK A01 T03430071  RH  019%=      5-min Rain = 0
KCO1 130257Z 12009KT 34/07 A299 RMK A01 T03420071  RH  019%=      5-min Rain = 0
KCO1 130258Z 12010KT 34/07 A299 RMK A01 T03420072  RH  019%=      5-min Rain = 0
KCO1 130259Z 12009KT 34/07 A299 RMK A01 T03420073  RH  019%=      5-min Rain = 0
KCO1 130300Z 12009KT 34/07 A299 RMK A01 T03420073  RH  019%=      5-min Rain = 0
KCO1 130301Z 12009KT 34/07 A299 RMK A01 T03410074  RH  019%=      5-min Rain = 0
KCO1 130302Z 12010KT 34/07 A299 RMK A01 T03410074  RH  019%=      5-min Rain = 0
KCO1 130303Z 12010KT 34/08 A299 RMK A01 T03410075  RH  019%=      5-min Rain = 0
KCO1 130304Z 12009KT 34/08 A299 RMK A01 T03410075  RH  019%=      5-min Rain = 0
KCO1 130305Z 12010KT 34/08 A299 RMK A01 T03410075  RH  019%=      5-min Rain = 0
KCO1 130306Z 12008KT 34/08 A299 RMK A01 T03410076  RH  019%=      5-min Rain = 0
KCO1 130307Z 12010KT 34/08 A299 RMK A01 T03410076  RH  019%=      5-min Rain = 0
KCO1 130308Z 12009KT 34/08 A299 RMK A01 T03410076  RH  020%=      5-min Rain = 0
KCO1 130309Z 12009KT 34/08 A299 RMK A01 T03400076  RH  020%=      5-min Rain = 0
KCO1 130310Z 12009KT 34/08 A299 RMK A01 T03400077  RH  020%=      5-min Rain = 0
KCO1 130311Z 12009KT 34/08 A299 RMK A01 T03400077  RH  020%=      5-min Rain = 0
KCO1 130312Z 12010KT 34/08 A299 RMK A01 T03390077  RH  020%=      5-min Rain = 0
KCO1 130313Z 12008KT 34/08 A299 RMK A01 T03390078  RH  020%=      5-min Rain = 0
KCO1 130314Z 12009KT 34/08 A2991 RMK A01 T03380077  RH  020%=      5-min Rain = 0
KCO1 130315Z 12009KT 34/08 A2991 RMK A01 T03380078  RH  020%=      5-min Rain = 0
KCO1 130316Z 12009KT 34/08 A2991 RMK A01 T03380078  RH  020%=      5-min Rain = 0
KCO1 130317Z 12010KT 34/08 A2991 RMK A01 T03380079  RH  020%=      5-min Rain = 0
KCO1 130318Z 12010KT 34/08 A2991 RMK A01 T03370079  RH  020%=      5-min Rain = 0
KCO1 130319Z 12009KT 34/08 A2991 RMK A01 T03370079  RH  020%=      5-min Rain = 0
KCO1 130320Z 12010KT 34/08 A2991 RMK A01 T03370079  RH  020%=      5-min Rain = 0
KCO1 130321Z 12009KT 34/08 A2991 RMK A01 T03370079  RH  020%=      5-min Rain = 0
KCO1 130322Z 12009KT 34/08 A2991 RMK A01 T03360079  RH  020%=      5-min Rain = 0
KCO1 130323Z 12009KT 34/08 A2991 RMK A01 T03360079  RH  021%=      5-min Rain = 0
KCO1 130324Z 12009KT 34/08 A2991 RMK A01 T03350080  RH  021%=      5-min Rain = 0
KCO1 130325Z 12010KT 34/08 A2991 RMK A01 T03350080  RH  021%=      5-min Rain = 0
KCO1 130326Z 12010KT 34/08 A2991 RMK A01 T03350080  RH  021%=      5-min Rain = 0
KCO1 130327Z 12010KT 33/08 A2991 RMK A01 T03340080  RH  021%=      5-min Rain = 0
KCO1 130328Z 12009KT 33/08 A2991 RMK A01 T03340080  RH  021%=      5-min Rain = 0
KCO1 130329Z 12010KT 33/08 A2991 RMK A01 T03340081  RH  021%=      5-min Rain = 0
KCO1 130330Z 12010KT 33/08 A2991 RMK A01 T03330081  RH  021%=      5-min Rain = 0
KCO1 130331Z 12010KT 33/08 A2991 RMK A01 T03340081  RH  021%=      5-min Rain = 0
KCO1 130332Z 12011KT 33/08 A2991 RMK A01 T03340081  RH  021%=      5-min Rain = 0
KCO1 130333Z 12010KT 33/08 A2991 RMK A01 T03340082  RH  021%=      5-min Rain = 0
KCO1 130334Z 12011KT 33/08 A2991 RMK A01 T03330082  RH  021%=      5-min Rain = 0
KCO1 130335Z 12010KT 33/08 A2991 RMK A01 T03340082  RH  021%=      5-min Rain = 0
KCO1 130336Z 13010KT 33/08 A2991 RMK A01 T03340082  RH  021%=      5-min Rain = 0
KCO1 130337Z 12011KT 33/08 A2991 RMK A01 T03330082  RH  021%=      5-min Rain = 0
KCO1 130338Z 13011KT 33/08 A2991 RMK A01 T03330082  RH  021%=      5-min Rain = 0
KCO1 130339Z 12010KT 33/08 A2991 RMK A01 T03330083  RH  021%=      5-min Rain = 0
KCO1 130340Z 13011KT 33/08 A2991 RMK A01 T03330083  RH  021%=      5-min Rain = 0
KCO1 130341Z 13012KT 33/08 A2991 RMK A01 T03330083  RH  021%=      5-min Rain = 0
KCO1 130342Z 13011KT 33/08 A2991 RMK A01 T03330083  RH  021%=      5-min Rain = 0
KCO1 130343Z 12010KT 33/08 A2991 RMK A01 T03330084  RH  021%=      5-min Rain = 0
KCO1 130344Z 13011KT 33/08 A2991 RMK A01 T03340084  RH  021%=      5-min Rain = 0
KCO1 130345Z 13010KT 33/09 A2991 RMK A01 T03340085  RH  022%=      5-min Rain = 0
KCO1 130346Z 13012KT 33/09 A2991 RMK A01 T03340085  RH  022%=      5-min Rain = 0
KCO1 130347Z 13010KT 33/09 A2991 RMK A01 T03330085  RH  022%=      5-min Rain = 0
KCO1 130348Z 13011KT 33/09 A2991 RMK A01 T03330085  RH  022%=      5-min Rain = 0
KCO1 130349Z 13011KT 33/09 A2991 RMK A01 T03340086  RH  022%=      5-min Rain = 0
KCO1 130350Z 13010KT 33/09 A2991 RMK A01 T03340086  RH  022%=      5-min Rain = 0
KCO1 130351Z 13011KT 34/09 A2991 RMK A01 T03350086  RH  022%=      5-min Rain = 0
KCO1 130352Z 13011KT 34/09 A2991 RMK A01 T03350087  RH  022%=      5-min Rain = 0
KCO1 130353Z 13011KT 33/09 A2991 RMK A01 T03340086  RH  022%=      5-min Rain = 0
KCO1 130354Z 13011KT 33/09 A2991 RMK A01 T03340087  RH  022%=      5-min Rain = 0
KCO1 130355Z 13010KT 33/09 A2991 RMK A01 T03340087  RH  022%=      5-min Rain = 0
KCO1 130356Z 13011KT 33/09 A2991 RMK A01 T03340087  RH  022%=      5-min Rain = 0
KCO1 130357Z 13011KT 33/09 A2991 RMK A01 T03340087  RH  022%=      5-min Rain = 0
KCO1 130358Z 13011G16KT 33/09 A2991 RMK A01 T03340087  RH  022%=      5-min Rain = 0
KCO1 130359Z 14009KT 33/09 A2991 RMK A01 T03330087  RH  022%=      5-min Rain = 0
KCO1 130400Z 13010KT 33/09 A2991 RMK A01 T03330087  RH  022%=      5-min Rain = 0
KCO1 130401Z 13010KT 33/09 A2991 RMK A01 T03320088  RH  022%=      5-min Rain = 0
KCO1 130402Z 13010KT 33/09 A2991 RMK A01 T03320088  RH  022%=      5-min Rain = 0
KCO1 130403Z 13011KT 33/09 A2991 RMK A01 T03330088  RH  022%=      5-min Rain = 0
KCO1 130404Z 13010KT 33/09 A2991 RMK A01 T03320088  RH  022%=      5-min Rain = 0
KCO1 130405Z 13009KT 33/09 A2991 RMK A01 T03320088  RH  022%=      5-min Rain = 0
KCO1 130406Z 13009KT 33/09 A2992 RMK A01 T03320088  RH  022%=      5-min Rain = 0
KCO1 130407Z 14009KT 33/09 A2992 RMK A01 T03310088  RH  022%=      5-min Rain = 0
KCO1 130408Z 14010KT 33/09 A2992 RMK A01 T03310088  RH  022%=      5-min Rain = 0
KCO1 130409Z 14010KT 33/09 A2992 RMK A01 T03310088  RH  022%=      5-min Rain = 0
KCO1 130410Z 13010KT 33/09 A2992 RMK A01 T03310088  RH  022%=      5-min Rain = 0
KCO1 130411Z 14011KT 33/09 A2992 RMK A01 T03320089  RH  022%=      5-min Rain = 0
KCO1 130412Z 14009KT 33/09 A2992 RMK A01 T03320089  RH  022%=      5-min Rain = 0
KCO1 130413Z 13010KT 33/09 A2992 RMK A01 T03320089  RH  022%=      5-min Rain = 0
KCO1 130414Z 14011KT 33/09 A2992 RMK A01 T03320089  RH  022%=      5-min Rain = 0
KCO1 130415Z 13009KT 33/09 A2992 RMK A01 T03320089  RH  022%=      5-min Rain = 0
KCO1 130416Z 13011KT 33/09 A2992 RMK A01 T03320090  RH  022%=      5-min Rain = 0
KCO1 130417Z 13010KT 33/09 A2992 RMK A01 T03310090  RH  023%=      5-min Rain = 0
KCO1 130418Z 13009KT 33/09 A2992 RMK A01 T03300089  RH  023%=      5-min Rain = 0
KCO1 130419Z 13010KT 33/09 A2992 RMK A01 T03300089  RH  023%=      5-min Rain = 0
KCO1 130420Z 13010KT 33/09 A2992 RMK A01 T03290090  RH  023%=      5-min Rain = 0
KCO1 130421Z 13010KT 33/09 A2992 RMK A01 T03290090  RH  023%=      5-min Rain = 0
KCO1 130422Z 13010KT 33/09 A2992 RMK A01 T03280090  RH  023%=      5-min Rain = 0
KCO1 130423Z 13012KT 33/09 A2992 RMK A01 T03280091  RH  023%=      5-min Rain = 0
KCO1 130424Z 13010KT 33/09 A2992 RMK A01 T03280091  RH  023%=      5-min Rain = 0
KCO1 130425Z 13012KT 33/09 A2992 RMK A01 T03280091  RH  023%=      5-min Rain = 0
KCO1 130426Z 13013KT 33/09 A2992 RMK A01 T03280091  RH  023%=      5-min Rain = 0
KCO1 130427Z 13012KT 33/09 A2992 RMK A01 T03280092  RH  023%=      5-min Rain = 0
KCO1 130428Z 13012KT 33/09 A2992 RMK A01 T03290092  RH  023%=      5-min Rain = 0
KCO1 130429Z 13011KT 33/09 A2992 RMK A01 T03290092  RH  023%=      5-min Rain = 0
KCO1 130430Z 14012KT 33/09 A2992 RMK A01 T03300092  RH  023%=      5-min Rain = 0
KCO1 130431Z 14014KT 33/09 A2992 RMK A01 T03290092  RH  023%=      5-min Rain = 0
KCO1 130432Z 13014KT 33/09 A2992 RMK A01 T03300092  RH  023%=      5-min Rain = 0
KCO1 130433Z 13013KT 33/09 A2992 RMK A01 T03300092  RH  023%=      5-min Rain = 0
KCO1 130434Z 13011KT 33/09 A2992 RMK A01 T03300092  RH  023%=      5-min Rain = 0
KCO1 130435Z 13011KT 33/09 A2992 RMK A01 T03300092  RH  023%=      5-min Rain = 0
KCO1 130436Z 13011KT 33/09 A2992 RMK A01 T03290092  RH  023%=      5-min Rain = 0
KCO1 130437Z 13010KT 33/09 A2992 RMK A01 T03280092  RH  023%=      5-min Rain = 0
KCO1 130438Z 13011KT 33/09 A2992 RMK A01 T03280092  RH  023%=      5-min Rain = 0
KCO1 130439Z 14011KT 33/09 A2992 RMK A01 T03280092  RH  023%=      5-min Rain = 0
KCO1 130440Z 14009KT 33/09 A2992 RMK A01 T03280092  RH  023%=      5-min Rain = 0
KCO1 130441Z 13009KT 33/09 A2992 RMK A01 T03270092  RH  024%=      5-min Rain = 0
KCO1 130442Z 13009KT 33/09 A2992 RMK A01 T03260092  RH  024%=      5-min Rain = 0
KCO1 130443Z 13012KT 33/09 A2992 RMK A01 T03250092  RH  024%=      5-min Rain = 0
KCO1 130444Z 13011KT 33/09 A2992 RMK A01 T03250092  RH  024%=      5-min Rain = 0
KCO1 130445Z 14011KT 33/09 A2992 RMK A01 T03250092  RH  024%=      5-min Rain = 0
KCO1 130446Z 14010KT 33/09 A2992 RMK A01 T03250092  RH  024%=      5-min Rain = 0
KCO1 130447Z 14010KT 33/09 A2992 RMK A01 T03250092  RH  024%=      5-min Rain = 0
KCO1 130448Z 13009KT 33/09 A2992 RMK A01 T03250092  RH  024%=      5-min Rain = 0
KCO1 130449Z 13010KT 32/09 A2992 RMK A01 T03240092  RH  024%=      5-min Rain = 0
KCO1 130450Z 14009KT 32/09 A2992 RMK A01 T03240093  RH  024%=      5-min Rain = 0
KCO1 130451Z 14010KT 32/09 A2992 RMK A01 T03230092  RH  024%=      5-min Rain = 0
KCO1 130452Z 13010KT 32/09 A2992 RMK A01 T03220092  RH  024%=      5-min Rain = 0
KCO1 130453Z 13009KT 32/09 A2992 RMK A01 T03230092  RH  024%=      5-min Rain = 0
KCO1 130454Z 13011KT 32/09 A2992 RMK A01 T03230092  RH  024%=      5-min Rain = 0
KCO1 130455Z 13011KT 32/09 A2993 RMK A01 T03230093  RH  024%=      5-min Rain = 0
KCO1 130456Z 14009KT 32/09 A2993 RMK A01 T03230093  RH  024%=      5-min Rain = 0
KCO1 130457Z 14009KT 32/09 A2993 RMK A01 T03220093  RH  024%=      5-min Rain = 0
KCO1 130458Z 13010KT 32/09 A2993 RMK A01 T03230093  RH  024%=      5-min Rain = 0
KCO1 130459Z 14010KT 32/09 A2993 RMK A01 T03220093  RH  024%=      5-min Rain = 0

Page generated in 0.0773 seconds.